<?xml version="1.0" encoding="UTF-8" standalone="no" ?><gpx xmlns="http://www.topografix.com/GPX/1/1" xmlns:gpxx="http://www.garmin.com/xmlschemas/GpxExtensions/v3" xmlns:wptx1="http://www.garmin.com/xmlschemas/WaypointExtension/v1" xmlns:gpxtpx="http://www.garmin.com/xmlschemas/TrackPointExtension/v1" creator="Alpha 50 EU" version="1.1" xmlns:xsi="http://www.w3.org/2001/XMLSchema-instance" xsi:schemaLocation="http://www.topografix.com/GPX/1/1 http://www.topografix.com/GPX/1/1/gpx.xsd http://www.garmin.com/xmlschemas/GpxExtensions/v3 http://www8.garmin.com/xmlschemas/GpxExtensionsv3.xsd http://www.garmin.com/xmlschemas/WaypointExtension/v1 http://www8.garmin.com/xmlschemas/WaypointExtensionv1.xsd http://www.garmin.com/xmlschemas/TrackPointExtension/v1 http://www.garmin.com/xmlschemas/TrackPointExtensionv1.xsd"><metadata><link href="http://www.garmin.com"><text>Garmin International</text></link><time>2026-08-22T18:12:18Z</time></metadata>
<trk><name>2026-08-22 Резник Куликова + Ая</name><extensions><gpxx:TrackExtension><gpxx:DisplayColor>Yellow</gpxx:DisplayColor></gpxx:TrackExtension></extensions><trkseg><trkpt lat="59.3508426659" lon="34.7009127494"><ele>173.66</ele><time>2026-08-22T10:23:13Z</time></trkpt><trkpt lat="59.3508367985" lon="34.7008844186"><ele>173.66</ele><time>2026-08-22T10:23:14Z</time></trkpt><trkpt lat="59.3508254830" lon="34.7008627094"><ele>173.66</ele><time>2026-08-22T10:23:29Z</time></trkpt><trkpt lat="59.3508142512" lon="34.7008497175"><ele>173.66</ele><time>2026-08-22T10:23:30Z</time></trkpt><trkpt lat="59.3509856611" lon="34.7010522243"><ele>172.69</ele><time>2026-08-22T10:24:36Z</time></trkpt><trkpt lat="59.3509357050" lon="34.7009363864"><ele>172.69</ele><time>2026-08-22T10:24:38Z</time></trkpt><trkpt lat="59.3509010877" lon="34.7009204607"><ele>172.69</ele><time>2026-08-22T10:24:48Z</time></trkpt><trkpt lat="59.3582667690" lon="34.7020671051"><ele>173.66</ele><time>2026-08-22T10:29:29Z</time></trkpt><trkpt lat="59.3508947175" lon="34.7009443492"><ele>173.66</ele><time>2026-08-22T10:29:54Z</time></trkpt><trkpt lat="59.3508844078" lon="34.7009673994"><ele>173.66</ele><time>2026-08-22T10:30:13Z</time></trkpt><trkpt lat="59.3509129900" lon="34.7009450197"><ele>173.66</ele><time>2026-08-22T10:30:50Z</time></trkpt><trkpt lat="59.3509226292" lon="34.7010000888"><ele>173.66</ele><time>2026-08-22T10:31:23Z</time></trkpt><trkpt lat="59.3509283289" lon="34.7010224685"><ele>173.17</ele><time>2026-08-22T10:31:52Z</time></trkpt><trkpt lat="59.3509422429" lon="34.7009471990"><ele>173.17</ele><time>2026-08-22T10:32:23Z</time></trkpt><trkpt lat="59.3509207852" lon="34.7010135837"><ele>173.17</ele><time>2026-08-22T10:32:43Z</time></trkpt><trkpt lat="59.3509067874" lon="34.7009937186"><ele>172.69</ele><time>2026-08-22T10:33:15Z</time></trkpt><trkpt lat="59.3509132415" lon="34.7009064630"><ele>172.69</ele><time>2026-08-22T10:33:29Z</time></trkpt><trkpt lat="59.3508468568" lon="34.7004917264"><ele>172.69</ele><time>2026-08-22T10:33:48Z</time></trkpt><trkpt lat="59.3508073781" lon="34.7002050653"><ele>172.69</ele><time>2026-08-22T10:34:04Z</time></trkpt><trkpt lat="59.3507247325" lon="34.6998513490"><ele>172.21</ele><time>2026-08-22T10:34:23Z</time></trkpt><trkpt lat="59.3506099842" lon="34.6995308250"><ele>172.21</ele><time>2026-08-22T10:34:40Z</time></trkpt><trkpt lat="59.3506033625" lon="34.6994133107"><ele>172.21</ele><time>2026-08-22T10:34:46Z</time></trkpt><trkpt lat="59.3505997583" lon="34.6993035078"><ele>172.21</ele><time>2026-08-22T10:34:51Z</time></trkpt><trkpt lat="59.3505613692" lon="34.6990221273"><ele>172.21</ele><time>2026-08-22T10:35:06Z</time></trkpt><trkpt lat="59.3504819088" lon="34.6985994279"><ele>171.73</ele><time>2026-08-22T10:35:25Z</time></trkpt><trkpt lat="59.3504021969" lon="34.6981027164"><ele>171.73</ele><time>2026-08-22T10:35:45Z</time></trkpt><trkpt lat="59.3503682502" lon="34.6977826953"><ele>171.73</ele><time>2026-08-22T10:36:01Z</time></trkpt><trkpt lat="59.3503010273" lon="34.6973555535"><ele>171.25</ele><time>2026-08-22T10:36:20Z</time></trkpt><trkpt lat="59.3502276856" lon="34.6970217023"><ele>171.25</ele><time>2026-08-22T10:36:36Z</time></trkpt><trkpt lat="59.3501550145" lon="34.6967133321"><ele>171.25</ele><time>2026-08-22T10:36:50Z</time></trkpt><trkpt lat="59.3500440381" lon="34.6963427681"><ele>170.29</ele><time>2026-08-22T10:37:08Z</time></trkpt><trkpt lat="59.3500369135" lon="34.6962927282"><ele>170.29</ele><time>2026-08-22T10:37:10Z</time></trkpt><trkpt lat="59.3500053976" lon="34.6957884729"><ele>169.81</ele><time>2026-08-22T10:37:31Z</time></trkpt><trkpt lat="59.3500346504" lon="34.6955680288"><ele>169.81</ele><time>2026-08-22T10:37:46Z</time></trkpt><trkpt lat="59.3500644900" lon="34.6955696214"><ele>169.81</ele><time>2026-08-22T10:37:50Z</time></trkpt><trkpt lat="59.3500495702" lon="34.6955536958"><ele>169.81</ele><time>2026-08-22T10:37:59Z</time></trkpt><trkpt lat="59.3499839399" lon="34.6952687111"><ele>169.33</ele><time>2026-08-22T10:38:16Z</time></trkpt><trkpt lat="59.3499820959" lon="34.6950971335"><ele>169.33</ele><time>2026-08-22T10:38:25Z</time></trkpt><trkpt lat="59.3499322236" lon="34.6946473606"><ele>169.33</ele><time>2026-08-22T10:38:46Z</time></trkpt><trkpt lat="59.3499193154" lon="34.6944352984"><ele>168.85</ele><time>2026-08-22T10:38:56Z</time></trkpt><trkpt lat="59.3498776574" lon="34.6941022016"><ele>168.85</ele><time>2026-08-22T10:39:25Z</time></trkpt><trkpt lat="59.3498566188" lon="34.6937080007"><ele>168.85</ele><time>2026-08-22T10:39:44Z</time></trkpt><trkpt lat="59.3498095963" lon="34.6932190843"><ele>168.37</ele><time>2026-08-22T10:40:07Z</time></trkpt><trkpt lat="59.3497593887" lon="34.6927995700"><ele>168.37</ele><time>2026-08-22T10:40:25Z</time></trkpt><trkpt lat="59.3497433793" lon="34.6924067941"><ele>169.33</ele><time>2026-08-22T10:40:45Z</time></trkpt><trkpt lat="59.3497494981" lon="34.6918544266"><ele>169.33</ele><time>2026-08-22T10:41:10Z</time></trkpt><trkpt lat="59.3497154675" lon="34.6914518438"><ele>169.33</ele><time>2026-08-22T10:41:28Z</time></trkpt><trkpt lat="59.3496953510" lon="34.6910940204"><ele>169.81</ele><time>2026-08-22T10:41:45Z</time></trkpt><trkpt lat="59.3496250268" lon="34.6905644517"><ele>169.81</ele><time>2026-08-22T10:42:11Z</time></trkpt><trkpt lat="59.3495903257" lon="34.6904362924"><ele>169.81</ele><time>2026-08-22T10:42:32Z</time></trkpt><trkpt lat="59.3495846260" lon="34.6904186904"><ele>169.81</ele><time>2026-08-22T10:43:06Z</time></trkpt><trkpt lat="59.3496142142" lon="34.6904139128"><ele>169.33</ele><time>2026-08-22T10:43:29Z</time></trkpt><trkpt lat="59.3496304750" lon="34.6903943829"><ele>169.33</ele><time>2026-08-22T10:44:00Z</time></trkpt><trkpt lat="59.3496703729" lon="34.6902528964"><ele>169.33</ele><time>2026-08-22T10:44:20Z</time></trkpt><trkpt lat="59.3497475702" lon="34.6900257468"><ele>169.33</ele><time>2026-08-22T10:44:39Z</time></trkpt><trkpt lat="59.3498377595" lon="34.6899682470"><ele>167.89</ele><time>2026-08-22T10:44:54Z</time></trkpt><trkpt lat="59.3498753943" lon="34.6899090707"><ele>167.89</ele><time>2026-08-22T10:45:06Z</time></trkpt><trkpt lat="59.3498894759" lon="34.6899289358"><ele>167.89</ele><time>2026-08-22T10:45:26Z</time></trkpt><trkpt lat="59.3499416951" lon="34.6899817418"><ele>167.41</ele><time>2026-08-22T10:45:46Z</time></trkpt><trkpt lat="59.3500260171" lon="34.6900922991"><ele>167.41</ele><time>2026-08-22T10:46:01Z</time></trkpt><trkpt lat="59.3500943296" lon="34.6902066283"><ele>167.41</ele><time>2026-08-22T10:46:13Z</time></trkpt><trkpt lat="59.3501322996" lon="34.6902649663"><ele>167.41</ele><time>2026-08-22T10:46:24Z</time></trkpt><trkpt lat="59.3501416873" lon="34.6903160959"><ele>167.41</ele><time>2026-08-22T10:46:52Z</time></trkpt><trkpt lat="59.3501898833" lon="34.6902957279"><ele>167.41</ele><time>2026-08-22T10:47:11Z</time></trkpt><trkpt lat="59.3502394203" lon="34.6902621165"><ele>167.41</ele><time>2026-08-22T10:47:31Z</time></trkpt><trkpt lat="59.3501988519" lon="34.6902274992"><ele>168.37</ele><time>2026-08-22T10:47:58Z</time></trkpt><trkpt lat="59.3502170406" lon="34.6902206261"><ele>167.89</ele><time>2026-08-22T10:48:44Z</time></trkpt><trkpt lat="59.3502900470" lon="34.6902533155"><ele>167.89</ele><time>2026-08-22T10:48:53Z</time></trkpt><trkpt lat="59.3503970001" lon="34.6902738512"><ele>168.37</ele><time>2026-08-22T10:49:08Z</time></trkpt><trkpt lat="59.3504322879" lon="34.6902870946"><ele>168.85</ele><time>2026-08-22T10:49:27Z</time></trkpt><trkpt lat="59.3504819088" lon="34.6904094703"><ele>169.33</ele><time>2026-08-22T10:49:37Z</time></trkpt><trkpt lat="59.3505427614" lon="34.6904561576"><ele>169.33</ele><time>2026-08-22T10:49:43Z</time></trkpt><trkpt lat="59.3506137561" lon="34.6905103046"><ele>168.85</ele><time>2026-08-22T10:49:51Z</time></trkpt><trkpt lat="59.3506992515" lon="34.6906482708"><ele>169.33</ele><time>2026-08-22T10:50:09Z</time></trkpt><trkpt lat="59.3507362995" lon="34.6906883363"><ele>169.33</ele><time>2026-08-22T10:50:38Z</time></trkpt><trkpt lat="59.3506899476" lon="34.6906289086"><ele>169.33</ele><time>2026-08-22T10:50:53Z</time></trkpt><trkpt lat="59.3506006803" lon="34.6905575786"><ele>169.33</ele><time>2026-08-22T10:51:11Z</time></trkpt><trkpt lat="59.3505122513" lon="34.6905314270"><ele>169.33</ele><time>2026-08-22T10:51:27Z</time></trkpt><trkpt lat="59.3503793143" lon="34.6906362008"><ele>169.33</ele><time>2026-08-22T10:51:46Z</time></trkpt><trkpt lat="59.3502788991" lon="34.6906496119"><ele>169.33</ele><time>2026-08-22T10:52:00Z</time></trkpt><trkpt lat="59.3502300326" lon="34.6905967221"><ele>168.37</ele><time>2026-08-22T10:52:08Z</time></trkpt><trkpt lat="59.3502228241" lon="34.6904188581"><ele>167.89</ele><time>2026-08-22T10:52:25Z</time></trkpt><trkpt lat="59.3502010312" lon="34.6902189497"><ele>167.89</ele><time>2026-08-22T10:52:39Z</time></trkpt><trkpt lat="59.3501367420" lon="34.6901103202"><ele>166.93</ele><time>2026-08-22T10:52:47Z</time></trkpt><trkpt lat="59.3501149490" lon="34.6900759544"><ele>166.93</ele><time>2026-08-22T10:52:58Z</time></trkpt><trkpt lat="59.3500938267" lon="34.6899198834"><ele>166.45</ele><time>2026-08-22T10:53:17Z</time></trkpt><trkpt lat="59.3500909768" lon="34.6898782253"><ele>166.45</ele><time>2026-08-22T10:53:21Z</time></trkpt><trkpt lat="59.3500694353" lon="34.6896778978"><ele>166.45</ele><time>2026-08-22T10:53:37Z</time></trkpt><trkpt lat="59.3500571977" lon="34.6894828510"><ele>166.45</ele><time>2026-08-22T10:53:54Z</time></trkpt><trkpt lat="59.3501017056" lon="34.6893332340"><ele>166.45</ele><time>2026-08-22T10:54:10Z</time></trkpt><trkpt lat="59.3501545954" lon="34.6891560405"><ele>166.45</ele><time>2026-08-22T10:54:26Z</time></trkpt><trkpt lat="59.3501587864" lon="34.6891065873"><ele>166.45</ele><time>2026-08-22T10:54:30Z</time></trkpt><trkpt lat="59.3501668330" lon="34.6889093611"><ele>166.45</ele><time>2026-08-22T10:54:48Z</time></trkpt><trkpt lat="59.3501698505" lon="34.6888801083"><ele>166.45</ele><time>2026-08-22T10:55:16Z</time></trkpt><trkpt lat="59.3501986004" lon="34.6888598241"><ele>166.45</ele><time>2026-08-22T10:55:55Z</time></trkpt><trkpt lat="59.3502186332" lon="34.6887309104"><ele>166.45</ele><time>2026-08-22T10:56:08Z</time></trkpt><trkpt lat="59.3502083234" lon="34.6885599196"><ele>166.45</ele><time>2026-08-22T10:56:23Z</time></trkpt><trkpt lat="59.3502551783" lon="34.6883414034"><ele>166.45</ele><time>2026-08-22T10:56:41Z</time></trkpt><trkpt lat="59.3502935674" lon="34.6880903654"><ele>166.45</ele><time>2026-08-22T10:56:57Z</time></trkpt><trkpt lat="59.3502511550" lon="34.6880383976"><ele>165.96</ele><time>2026-08-22T10:57:15Z</time></trkpt><trkpt lat="59.3502044678" lon="34.6880394872"><ele>165.96</ele><time>2026-08-22T10:57:24Z</time></trkpt><trkpt lat="59.3501387537" lon="34.6879314445"><ele>165.96</ele><time>2026-08-22T10:57:34Z</time></trkpt><trkpt lat="59.3500552699" lon="34.6877022833"><ele>165.96</ele><time>2026-08-22T10:57:52Z</time></trkpt><trkpt lat="59.3500278611" lon="34.6876300313"><ele>165.96</ele><time>2026-08-22T10:58:00Z</time></trkpt><trkpt lat="59.3500232510" lon="34.6874519996"><ele>165.96</ele><time>2026-08-22T10:58:14Z</time></trkpt><trkpt lat="59.3499820121" lon="34.6870904882"><ele>165.96</ele><time>2026-08-22T10:58:44Z</time></trkpt><trkpt lat="59.3500003684" lon="34.6868600696"><ele>165.96</ele><time>2026-08-22T10:59:00Z</time></trkpt><trkpt lat="59.3499813415" lon="34.6866799425"><ele>165.48</ele><time>2026-08-22T10:59:15Z</time></trkpt><trkpt lat="59.3500153720" lon="34.6865055989"><ele>165.48</ele><time>2026-08-22T10:59:31Z</time></trkpt><trkpt lat="59.3500203174" lon="34.6864480991"><ele>165.48</ele><time>2026-08-22T10:59:35Z</time></trkpt><trkpt lat="59.3499842752" lon="34.6862465143"><ele>165.48</ele><time>2026-08-22T10:59:48Z</time></trkpt><trkpt lat="59.3500769790" lon="34.6862090472"><ele>165.48</ele><time>2026-08-22T11:00:15Z</time></trkpt><trkpt lat="59.3501527514" lon="34.6860765293"><ele>165.48</ele><time>2026-08-22T11:00:29Z</time></trkpt><trkpt lat="59.3501408491" lon="34.6858495474"><ele>165.48</ele><time>2026-08-22T11:00:46Z</time></trkpt><trkpt lat="59.3501468003" lon="34.6856557578"><ele>165.48</ele><time>2026-08-22T11:01:02Z</time></trkpt><trkpt lat="59.3501585349" lon="34.6854321286"><ele>165.48</ele><time>2026-08-22T11:01:19Z</time></trkpt><trkpt lat="59.3501457945" lon="34.6852732077"><ele>165.48</ele><time>2026-08-22T11:01:31Z</time></trkpt><trkpt lat="59.3500716146" lon="34.6851509996"><ele>165.48</ele><time>2026-08-22T11:01:57Z</time></trkpt><trkpt lat="59.3499632366" lon="34.6851779055"><ele>165.00</ele><time>2026-08-22T11:02:12Z</time></trkpt><trkpt lat="59.3499349058" lon="34.6850519255"><ele>165.96</ele><time>2026-08-22T11:02:28Z</time></trkpt><trkpt lat="59.3499466404" lon="34.6847943496"><ele>165.96</ele><time>2026-08-22T11:02:47Z</time></trkpt><trkpt lat="59.3499345705" lon="34.6846676152"><ele>165.96</ele><time>2026-08-22T11:02:58Z</time></trkpt><trkpt lat="59.3499406893" lon="34.6845381986"><ele>165.96</ele><time>2026-08-22T11:03:12Z</time></trkpt><trkpt lat="59.3499514181" lon="34.6844459139"><ele>165.96</ele><time>2026-08-22T11:03:26Z</time></trkpt><trkpt lat="59.3500268552" lon="34.6845669486"><ele>165.96</ele><time>2026-08-22T11:03:49Z</time></trkpt><trkpt lat="59.3499935791" lon="34.6846413799"><ele>165.96</ele><time>2026-08-22T11:04:05Z</time></trkpt><trkpt lat="59.3500656635" lon="34.6845500171"><ele>165.96</ele><time>2026-08-22T11:04:24Z</time></trkpt><trkpt lat="59.3502058089" lon="34.6844615880"><ele>166.45</ele><time>2026-08-22T11:04:40Z</time></trkpt><trkpt lat="59.3503627181" lon="34.6844083630"><ele>166.93</ele><time>2026-08-22T11:04:56Z</time></trkpt><trkpt lat="59.3504570145" lon="34.6843387093"><ele>166.93</ele><time>2026-08-22T11:05:08Z</time></trkpt><trkpt lat="59.3505271710" lon="34.6842579078"><ele>166.93</ele><time>2026-08-22T11:05:24Z</time></trkpt><trkpt lat="59.3504144344" lon="34.6843846422"><ele>166.93</ele><time>2026-08-22T11:05:38Z</time></trkpt><trkpt lat="59.3502607103" lon="34.6844392922"><ele>166.45</ele><time>2026-08-22T11:05:55Z</time></trkpt><trkpt lat="59.3502471317" lon="34.6844590735"><ele>166.45</ele><time>2026-08-22T11:05:57Z</time></trkpt><trkpt lat="59.3499602191" lon="34.6845651884"><ele>166.45</ele><time>2026-08-22T11:06:23Z</time></trkpt><trkpt lat="59.3497956824" lon="34.6845783480"><ele>166.45</ele><time>2026-08-22T11:06:42Z</time></trkpt><trkpt lat="59.3496219255" lon="34.6845158190"><ele>166.45</ele><time>2026-08-22T11:07:02Z</time></trkpt><trkpt lat="59.3494789302" lon="34.6846674476"><ele>166.45</ele><time>2026-08-22T11:07:20Z</time></trkpt><trkpt lat="59.3493887410" lon="34.6844537929"><ele>166.93</ele><time>2026-08-22T11:07:46Z</time></trkpt><trkpt lat="59.3494496774" lon="34.6840344463"><ele>166.93</ele><time>2026-08-22T11:08:08Z</time></trkpt><trkpt lat="59.3494835403" lon="34.6836096514"><ele>166.93</ele><time>2026-08-22T11:08:28Z</time></trkpt><trkpt lat="59.3495524395" lon="34.6832664963"><ele>166.93</ele><time>2026-08-22T11:08:46Z</time></trkpt><trkpt lat="59.3496094365" lon="34.6830387600"><ele>167.41</ele><time>2026-08-22T11:09:02Z</time></trkpt><trkpt lat="59.3497027270" lon="34.6825478319"><ele>167.41</ele><time>2026-08-22T11:09:28Z</time></trkpt><trkpt lat="59.3497577962" lon="34.6822233684"><ele>167.89</ele><time>2026-08-22T11:09:47Z</time></trkpt><trkpt lat="59.3497469835" lon="34.6821786091"><ele>167.89</ele><time>2026-08-22T11:10:30Z</time></trkpt><trkpt lat="59.3497640826" lon="34.6821590792"><ele>167.89</ele><time>2026-08-22T11:11:09Z</time></trkpt><trkpt lat="59.3497928325" lon="34.6819127351"><ele>167.89</ele><time>2026-08-22T11:11:27Z</time></trkpt><trkpt lat="59.3498504162" lon="34.6815640479"><ele>167.89</ele><time>2026-08-22T11:11:50Z</time></trkpt><trkpt lat="59.3498658389" lon="34.6815866791"><ele>167.41</ele><time>2026-08-22T11:12:23Z</time></trkpt><trkpt lat="59.3498939183" lon="34.6816449333"><ele>167.41</ele><time>2026-08-22T11:12:44Z</time></trkpt><trkpt lat="59.3499646615" lon="34.6817289200"><ele>167.41</ele><time>2026-08-22T11:13:09Z</time></trkpt><trkpt lat="59.3500525039" lon="34.6818338614"><ele>167.41</ele><time>2026-08-22T11:13:26Z</time></trkpt><trkpt lat="59.3501850218" lon="34.6820911020"><ele>167.41</ele><time>2026-08-22T11:13:56Z</time></trkpt><trkpt lat="59.3502834253" lon="34.6822392941"><ele>167.41</ele><time>2026-08-22T11:14:18Z</time></trkpt><trkpt lat="59.3503721897" lon="34.6823756676"><ele>166.93</ele><time>2026-08-22T11:14:37Z</time></trkpt><trkpt lat="59.3504857644" lon="34.6824323293"><ele>165.96</ele><time>2026-08-22T11:14:56Z</time></trkpt><trkpt lat="59.3504851777" lon="34.6824096981"><ele>165.96</ele><time>2026-08-22T11:15:21Z</time></trkpt><trkpt lat="59.3504462019" lon="34.6824038308"><ele>165.96</ele><time>2026-08-22T11:15:51Z</time></trkpt><trkpt lat="59.3504684977" lon="34.6824257914"><ele>165.96</ele><time>2026-08-22T11:16:14Z</time></trkpt><trkpt lat="59.3505549151" lon="34.6823752485"><ele>165.96</ele><time>2026-08-22T11:16:40Z</time></trkpt><trkpt lat="59.3505233992" lon="34.6826049965"><ele>165.96</ele><time>2026-08-22T11:17:02Z</time></trkpt><trkpt lat="59.3504905421" lon="34.6828676015"><ele>165.96</ele><time>2026-08-22T11:17:22Z</time></trkpt><trkpt lat="59.3505316135" lon="34.6830893867"><ele>165.96</ele><time>2026-08-22T11:17:39Z</time></trkpt><trkpt lat="59.3503968325" lon="34.6834127605"><ele>165.96</ele><time>2026-08-22T11:18:12Z</time></trkpt><trkpt lat="59.3503336329" lon="34.6835524868"><ele>165.96</ele><time>2026-08-22T11:18:25Z</time></trkpt><trkpt lat="59.3502896279" lon="34.6836217213"><ele>165.96</ele><time>2026-08-22T11:18:31Z</time></trkpt><trkpt lat="59.3501657434" lon="34.6836840827"><ele>165.96</ele><time>2026-08-22T11:18:48Z</time></trkpt><trkpt lat="59.3500924017" lon="34.6837405767"><ele>165.96</ele><time>2026-08-22T11:19:04Z</time></trkpt><trkpt lat="59.3500074930" lon="34.6838508826"><ele>165.96</ele><time>2026-08-22T11:19:21Z</time></trkpt><trkpt lat="59.3499380071" lon="34.6840354521"><ele>165.96</ele><time>2026-08-22T11:19:38Z</time></trkpt><trkpt lat="59.3498980254" lon="34.6841561515"><ele>165.96</ele><time>2026-08-22T11:19:57Z</time></trkpt><trkpt lat="59.3498759810" lon="34.6842528787"><ele>165.96</ele><time>2026-08-22T11:20:11Z</time></trkpt><trkpt lat="59.3498186488" lon="34.6844205167"><ele>165.96</ele><time>2026-08-22T11:20:29Z</time></trkpt><trkpt lat="59.3498142064" lon="34.6844268031"><ele>165.96</ele><time>2026-08-22T11:20:30Z</time></trkpt><trkpt lat="59.3497268669" lon="34.6843879949"><ele>165.96</ele><time>2026-08-22T11:20:49Z</time></trkpt><trkpt lat="59.3496287987" lon="34.6844648570"><ele>165.96</ele><time>2026-08-22T11:21:05Z</time></trkpt><trkpt lat="59.3495937623" lon="34.6845796891"><ele>165.96</ele><time>2026-08-22T11:21:21Z</time></trkpt><trkpt lat="59.3494992144" lon="34.6846759133"><ele>167.41</ele><time>2026-08-22T11:21:33Z</time></trkpt><trkpt lat="59.3493977096" lon="34.6847795136"><ele>167.41</ele><time>2026-08-22T11:21:46Z</time></trkpt><trkpt lat="59.3493653554" lon="34.6848655958"><ele>167.41</ele><time>2026-08-22T11:21:51Z</time></trkpt><trkpt lat="59.3493242003" lon="34.6849806793"><ele>167.41</ele><time>2026-08-22T11:21:56Z</time></trkpt><trkpt lat="59.3493040837" lon="34.6852748841"><ele>167.41</ele><time>2026-08-22T11:22:10Z</time></trkpt><trkpt lat="59.3492971268" lon="34.6856038738"><ele>167.41</ele><time>2026-08-22T11:22:25Z</time></trkpt><trkpt lat="59.3492834643" lon="34.6859387308"><ele>166.93</ele><time>2026-08-22T11:22:43Z</time></trkpt><trkpt lat="59.3492579833" lon="34.6861494519"><ele>167.89</ele><time>2026-08-22T11:23:04Z</time></trkpt><trkpt lat="59.3492448237" lon="34.6864144038"><ele>167.89</ele><time>2026-08-22T11:23:18Z</time></trkpt><trkpt lat="59.3492066022" lon="34.6866252087"><ele>167.89</ele><time>2026-08-22T11:23:29Z</time></trkpt><trkpt lat="59.3492104579" lon="34.6869643405"><ele>167.41</ele><time>2026-08-22T11:23:43Z</time></trkpt><trkpt lat="59.3492200971" lon="34.6873338148"><ele>167.41</ele><time>2026-08-22T11:23:59Z</time></trkpt><trkpt lat="59.3492646888" lon="34.6879899502"><ele>167.41</ele><time>2026-08-22T11:24:30Z</time></trkpt><trkpt lat="59.3492581509" lon="34.6883971430"><ele>167.41</ele><time>2026-08-22T11:24:53Z</time></trkpt><trkpt lat="59.3492719810" lon="34.6884420700"><ele>167.41</ele><time>2026-08-22T11:25:19Z</time></trkpt><trkpt lat="59.3492857274" lon="34.6886428166"><ele>165.96</ele><time>2026-08-22T11:25:43Z</time></trkpt><trkpt lat="59.3493210152" lon="34.6890610736"><ele>165.96</ele><time>2026-08-22T11:26:05Z</time></trkpt><trkpt lat="59.3493684568" lon="34.6895587072"><ele>165.96</ele><time>2026-08-22T11:26:30Z</time></trkpt><trkpt lat="59.3494211789" lon="34.6899078973"><ele>165.96</ele><time>2026-08-22T11:26:47Z</time></trkpt><trkpt lat="59.3495928403" lon="34.6904538106"><ele>165.96</ele><time>2026-08-22T11:27:21Z</time></trkpt><trkpt lat="59.3496056646" lon="34.6904722508"><ele>165.48</ele><time>2026-08-22T11:28:03Z</time></trkpt><trkpt lat="59.3496187404" lon="34.6904116496"><ele>165.48</ele><time>2026-08-22T11:28:17Z</time></trkpt><trkpt lat="59.3496825267" lon="34.6902776230"><ele>165.48</ele><time>2026-08-22T11:28:27Z</time></trkpt><trkpt lat="59.3497340754" lon="34.6900565922"><ele>165.48</ele><time>2026-08-22T11:28:44Z</time></trkpt><trkpt lat="59.3497912399" lon="34.6900247410"><ele>165.48</ele><time>2026-08-22T11:28:58Z</time></trkpt><trkpt lat="59.3498575408" lon="34.6900281776"><ele>165.48</ele><time>2026-08-22T11:29:18Z</time></trkpt><trkpt lat="59.3498998694" lon="34.6900206339"><ele>165.00</ele><time>2026-08-22T11:29:24Z</time></trkpt><trkpt lat="59.3499889690" lon="34.6900473721"><ele>165.00</ele><time>2026-08-22T11:29:39Z</time></trkpt><trkpt lat="59.3499951717" lon="34.6900545806"><ele>165.00</ele><time>2026-08-22T11:29:40Z</time></trkpt><trkpt lat="59.3500585388" lon="34.6902746055"><ele>165.00</ele><time>2026-08-22T11:30:01Z</time></trkpt><trkpt lat="59.3500523362" lon="34.6902946383"><ele>165.00</ele><time>2026-08-22T11:30:03Z</time></trkpt><trkpt lat="59.3499751389" lon="34.6905195247"><ele>165.00</ele><time>2026-08-22T11:30:21Z</time></trkpt><trkpt lat="59.3499690201" lon="34.6906178445"><ele>164.52</ele><time>2026-08-22T11:30:35Z</time></trkpt><trkpt lat="59.3500195630" lon="34.6907447465"><ele>164.52</ele><time>2026-08-22T11:30:55Z</time></trkpt><trkpt lat="59.3500042241" lon="34.6909045056"><ele>164.52</ele><time>2026-08-22T11:31:10Z</time></trkpt><trkpt lat="59.3499979377" lon="34.6909933537"><ele>164.52</ele><time>2026-08-22T11:31:26Z</time></trkpt><trkpt lat="59.3500147015" lon="34.6910249535"><ele>164.04</ele><time>2026-08-22T11:31:48Z</time></trkpt><trkpt lat="59.3500558566" lon="34.6911155619"><ele>164.04</ele><time>2026-08-22T11:32:02Z</time></trkpt><trkpt lat="59.3501405977" lon="34.6912911627"><ele>164.04</ele><time>2026-08-22T11:32:18Z</time></trkpt><trkpt lat="59.3501677550" lon="34.6914266143"><ele>164.04</ele><time>2026-08-22T11:32:33Z</time></trkpt><trkpt lat="59.3502167892" lon="34.6915543545"><ele>165.48</ele><time>2026-08-22T11:32:51Z</time></trkpt><trkpt lat="59.3502524123" lon="34.6915557794"><ele>165.96</ele><time>2026-08-22T11:33:13Z</time></trkpt><trkpt lat="59.3502804078" lon="34.6916409396"><ele>165.96</ele><time>2026-08-22T11:33:30Z</time></trkpt><trkpt lat="59.3503575213" lon="34.6916028019"><ele>165.96</ele><time>2026-08-22T11:33:52Z</time></trkpt><trkpt lat="59.3503399193" lon="34.6917516645"><ele>165.96</ele><time>2026-08-22T11:34:07Z</time></trkpt><trkpt lat="59.3503385782" lon="34.6919536684"><ele>165.96</ele><time>2026-08-22T11:34:22Z</time></trkpt><trkpt lat="59.3503713515" lon="34.6921327058"><ele>165.96</ele><time>2026-08-22T11:34:35Z</time></trkpt><trkpt lat="59.3504083157" lon="34.6923286747"><ele>165.96</ele><time>2026-08-22T11:34:49Z</time></trkpt><trkpt lat="59.3504281808" lon="34.6924661379"><ele>165.96</ele><time>2026-08-22T11:35:04Z</time></trkpt><trkpt lat="59.3504110817" lon="34.6924309339"><ele>165.96</ele><time>2026-08-22T11:35:47Z</time></trkpt><trkpt lat="59.3504644744" lon="34.6924427524"><ele>165.48</ele><time>2026-08-22T11:36:10Z</time></trkpt><trkpt lat="59.3505710084" lon="34.6923309378"><ele>165.48</ele><time>2026-08-22T11:36:24Z</time></trkpt><trkpt lat="59.3506816495" lon="34.6923800558"><ele>165.48</ele><time>2026-08-22T11:36:41Z</time></trkpt><trkpt lat="59.3507820647" lon="34.6924945526"><ele>165.48</ele><time>2026-08-22T11:36:57Z</time></trkpt><trkpt lat="59.3508599326" lon="34.6925133280"><ele>165.96</ele><time>2026-08-22T11:37:12Z</time></trkpt><trkpt lat="59.3509248924" lon="34.6926026791"><ele>165.96</ele><time>2026-08-22T11:37:22Z</time></trkpt><trkpt lat="59.3509909417" lon="34.6927136555"><ele>165.96</ele><time>2026-08-22T11:37:37Z</time></trkpt><trkpt lat="59.3510556500" lon="34.6927533858"><ele>165.48</ele><time>2026-08-22T11:37:49Z</time></trkpt><trkpt lat="59.3511392176" lon="34.6928403061"><ele>165.48</ele><time>2026-08-22T11:38:03Z</time></trkpt><trkpt lat="59.3511625193" lon="34.6928575728"><ele>165.48</ele><time>2026-08-22T11:38:06Z</time></trkpt><trkpt lat="59.3512558937" lon="34.6929473430"><ele>165.48</ele><time>2026-08-22T11:38:24Z</time></trkpt><trkpt lat="59.3512816262" lon="34.6929005720"><ele>165.48</ele><time>2026-08-22T11:38:53Z</time></trkpt><trkpt lat="59.3512550555" lon="34.6929495223"><ele>165.48</ele><time>2026-08-22T11:39:17Z</time></trkpt><trkpt lat="59.3512513675" lon="34.6929415595"><ele>165.00</ele><time>2026-08-22T11:39:46Z</time></trkpt><trkpt lat="59.3512783572" lon="34.6929160785"><ele>165.00</ele><time>2026-08-22T11:40:18Z</time></trkpt><trkpt lat="59.3512524571" lon="34.6929500252"><ele>165.00</ele><time>2026-08-22T11:40:43Z</time></trkpt><trkpt lat="59.3512589112" lon="34.6929159947"><ele>165.00</ele><time>2026-08-22T11:41:10Z</time></trkpt><trkpt lat="59.3512527086" lon="34.6929775178"><ele>165.00</ele><time>2026-08-22T11:41:39Z</time></trkpt><trkpt lat="59.3512237072" lon="34.6930005681"><ele>165.00</ele><time>2026-08-22T11:42:08Z</time></trkpt><trkpt lat="59.3512430694" lon="34.6930169128"><ele>165.00</ele><time>2026-08-22T11:42:34Z</time></trkpt><trkpt lat="59.3512345199" lon="34.6929845586"><ele>165.00</ele><time>2026-08-22T11:43:07Z</time></trkpt><trkpt lat="59.3512470927" lon="34.6929278132"><ele>165.00</ele><time>2026-08-22T11:43:37Z</time></trkpt><trkpt lat="59.3512440752" lon="34.6928748395"><ele>165.00</ele><time>2026-08-22T11:44:03Z</time></trkpt><trkpt lat="59.3512251321" lon="34.6929826308"><ele>165.00</ele><time>2026-08-22T11:44:34Z</time></trkpt><trkpt lat="59.3512327597" lon="34.6928981412"><ele>165.00</ele><time>2026-08-22T11:45:16Z</time></trkpt><trkpt lat="59.3512332626" lon="34.6929358598"><ele>165.00</ele><time>2026-08-22T11:45:51Z</time></trkpt><trkpt lat="59.3512273952" lon="34.6930040047"><ele>165.00</ele><time>2026-08-22T11:46:22Z</time></trkpt><trkpt lat="59.3513021618" lon="34.6929272264"><ele>165.00</ele><time>2026-08-22T11:46:45Z</time></trkpt><trkpt lat="59.3513162434" lon="34.6929681301"><ele>165.00</ele><time>2026-08-22T11:47:05Z</time></trkpt><trkpt lat="59.3512769323" lon="34.6928523760"><ele>165.00</ele><time>2026-08-22T11:47:22Z</time></trkpt><trkpt lat="59.3511817977" lon="34.6927686408"><ele>165.00</ele><time>2026-08-22T11:47:37Z</time></trkpt><trkpt lat="59.3511610106" lon="34.6927342750"><ele>165.00</ele><time>2026-08-22T11:47:41Z</time></trkpt><trkpt lat="59.3511491083" lon="34.6927079558"><ele>165.00</ele><time>2026-08-22T11:47:43Z</time></trkpt><trkpt lat="59.3511220347" lon="34.6926204488"><ele>164.52</ele><time>2026-08-22T11:47:50Z</time></trkpt><trkpt lat="59.3511317577" lon="34.6925798804"><ele>164.52</ele><time>2026-08-22T11:47:52Z</time></trkpt><trkpt lat="59.3511196040" lon="34.6925124899"><ele>164.52</ele><time>2026-08-22T11:47:56Z</time></trkpt><trkpt lat="59.3510928657" lon="34.6923958976"><ele>164.52</ele><time>2026-08-22T11:48:19Z</time></trkpt><trkpt lat="59.3511331826" lon="34.6922410838"><ele>164.52</ele><time>2026-08-22T11:48:39Z</time></trkpt><trkpt lat="59.3511240464" lon="34.6921897028"><ele>164.52</ele><time>2026-08-22T11:48:47Z</time></trkpt><trkpt lat="59.3510653730" lon="34.6920064744"><ele>164.52</ele><time>2026-08-22T11:49:02Z</time></trkpt><trkpt lat="59.3510900997" lon="34.6917974297"><ele>164.04</ele><time>2026-08-22T11:49:22Z</time></trkpt><trkpt lat="59.3511267286" lon="34.6916014608"><ele>164.04</ele><time>2026-08-22T11:49:43Z</time></trkpt><trkpt lat="59.3511030078" lon="34.6914536878"><ele>164.04</ele><time>2026-08-22T11:50:00Z</time></trkpt><trkpt lat="59.3511067796" lon="34.6913234331"><ele>164.52</ele><time>2026-08-22T11:50:16Z</time></trkpt><trkpt lat="59.3511014152" lon="34.6911162324"><ele>165.00</ele><time>2026-08-22T11:50:35Z</time></trkpt><trkpt lat="59.3510879204" lon="34.6907848120"><ele>165.48</ele><time>2026-08-22T11:51:02Z</time></trkpt><trkpt lat="59.3510875013" lon="34.6906330995"><ele>165.48</ele><time>2026-08-22T11:51:18Z</time></trkpt><trkpt lat="59.3510396406" lon="34.6903968975"><ele>165.48</ele><time>2026-08-22T11:51:35Z</time></trkpt><trkpt lat="59.3510073703" lon="34.6903982386"><ele>165.48</ele><time>2026-08-22T11:51:55Z</time></trkpt><trkpt lat="59.3509939592" lon="34.6903708298"><ele>165.48</ele><time>2026-08-22T11:52:00Z</time></trkpt><trkpt lat="59.3509737588" lon="34.6902461909"><ele>165.48</ele><time>2026-08-22T11:52:11Z</time></trkpt><trkpt lat="59.3510010839" lon="34.6899725217"><ele>165.48</ele><time>2026-08-22T11:52:27Z</time></trkpt><trkpt lat="59.3510090467" lon="34.6898408420"><ele>165.48</ele><time>2026-08-22T11:52:41Z</time></trkpt><trkpt lat="59.3509922829" lon="34.6896474715"><ele>165.48</ele><time>2026-08-22T11:52:55Z</time></trkpt><trkpt lat="59.3509839848" lon="34.6893393528"><ele>165.48</ele><time>2026-08-22T11:53:11Z</time></trkpt><trkpt lat="59.3509398960" lon="34.6892695315"><ele>165.48</ele><time>2026-08-22T11:53:47Z</time></trkpt><trkpt lat="59.3509538937" lon="34.6892270353"><ele>165.48</ele><time>2026-08-22T11:54:09Z</time></trkpt><trkpt lat="59.3509329390" lon="34.6891219262"><ele>165.48</ele><time>2026-08-22T11:54:23Z</time></trkpt><trkpt lat="59.3509200308" lon="34.6888782643"><ele>165.48</ele><time>2026-08-22T11:54:41Z</time></trkpt><trkpt lat="59.3509258982" lon="34.6886615921"><ele>165.48</ele><time>2026-08-22T11:54:58Z</time></trkpt><trkpt lat="59.3509170972" lon="34.6886208560"><ele>165.48</ele><time>2026-08-22T11:55:01Z</time></trkpt><trkpt lat="59.3508455157" lon="34.6885071136"><ele>164.04</ele><time>2026-08-22T11:55:18Z</time></trkpt><trkpt lat="59.3508373853" lon="34.6883058641"><ele>164.04</ele><time>2026-08-22T11:55:34Z</time></trkpt><trkpt lat="59.3507945538" lon="34.6881642938"><ele>163.56</ele><time>2026-08-22T11:55:54Z</time></trkpt><trkpt lat="59.3508011755" lon="34.6880212147"><ele>163.56</ele><time>2026-08-22T11:56:12Z</time></trkpt><trkpt lat="59.3507817294" lon="34.6878782194"><ele>163.08</ele><time>2026-08-22T11:56:32Z</time></trkpt><trkpt lat="59.3507525604" lon="34.6879525669"><ele>163.08</ele><time>2026-08-22T11:56:39Z</time></trkpt><trkpt lat="59.3507255707" lon="34.6879772097"><ele>163.08</ele><time>2026-08-22T11:56:43Z</time></trkpt><trkpt lat="59.3506880198" lon="34.6878372319"><ele>163.08</ele><time>2026-08-22T11:57:11Z</time></trkpt><trkpt lat="59.3506911211" lon="34.6879705880"><ele>163.56</ele><time>2026-08-22T11:57:30Z</time></trkpt><trkpt lat="59.3506138399" lon="34.6878858469"><ele>163.56</ele><time>2026-08-22T11:57:47Z</time></trkpt><trkpt lat="59.3506202940" lon="34.6878406685"><ele>163.56</ele><time>2026-08-22T11:57:52Z</time></trkpt><trkpt lat="59.3505778816" lon="34.6875298675"><ele>163.56</ele><time>2026-08-22T11:58:09Z</time></trkpt><trkpt lat="59.3506226409" lon="34.6874049772"><ele>163.56</ele><time>2026-08-22T11:58:24Z</time></trkpt><trkpt lat="59.3506438471" lon="34.6872550249"><ele>163.56</ele><time>2026-08-22T11:58:43Z</time></trkpt><trkpt lat="59.3506496307" lon="34.6872461401"><ele>163.56</ele><time>2026-08-22T11:58:44Z</time></trkpt><trkpt lat="59.3507054541" lon="34.6871463954"><ele>163.56</ele><time>2026-08-22T11:59:04Z</time></trkpt><trkpt lat="59.3507070467" lon="34.6870245226"><ele>163.56</ele><time>2026-08-22T11:59:20Z</time></trkpt><trkpt lat="59.3506467808" lon="34.6869408712"><ele>163.56</ele><time>2026-08-22T11:59:37Z</time></trkpt><trkpt lat="59.3506986648" lon="34.6868249495"><ele>163.56</ele><time>2026-08-22T11:59:54Z</time></trkpt><trkpt lat="59.3507495429" lon="34.6867495961"><ele>163.56</ele><time>2026-08-22T12:00:04Z</time></trkpt><trkpt lat="59.3508036900" lon="34.6866231132"><ele>163.56</ele><time>2026-08-22T12:00:24Z</time></trkpt><trkpt lat="59.3508227170" lon="34.6865436528"><ele>163.56</ele><time>2026-08-22T12:00:41Z</time></trkpt><trkpt lat="59.3508214597" lon="34.6864786930"><ele>163.56</ele><time>2026-08-22T12:00:47Z</time></trkpt><trkpt lat="59.3507510517" lon="34.6863750089"><ele>163.56</ele><time>2026-08-22T12:01:05Z</time></trkpt><trkpt lat="59.3507605232" lon="34.6862322651"><ele>163.56</ele><time>2026-08-22T12:01:27Z</time></trkpt><trkpt lat="59.3507555779" lon="34.6860364638"><ele>163.56</ele><time>2026-08-22T12:01:47Z</time></trkpt><trkpt lat="59.3506699987" lon="34.6859181952"><ele>163.56</ele><time>2026-08-22T12:02:09Z</time></trkpt><trkpt lat="59.3506554142" lon="34.6857489645"><ele>163.56</ele><time>2026-08-22T12:02:25Z</time></trkpt><trkpt lat="59.3506778777" lon="34.6856933087"><ele>163.56</ele><time>2026-08-22T12:02:47Z</time></trkpt><trkpt lat="59.3507292587" lon="34.6855613776"><ele>163.56</ele><time>2026-08-22T12:03:03Z</time></trkpt><trkpt lat="59.3507678155" lon="34.6853967570"><ele>163.56</ele><time>2026-08-22T12:03:20Z</time></trkpt><trkpt lat="59.3507340364" lon="34.6852684300"><ele>164.04</ele><time>2026-08-22T12:03:37Z</time></trkpt><trkpt lat="59.3506910373" lon="34.6851028036"><ele>164.04</ele><time>2026-08-22T12:03:53Z</time></trkpt><trkpt lat="59.3506699987" lon="34.6849085949"><ele>165.00</ele><time>2026-08-22T12:04:11Z</time></trkpt><trkpt lat="59.3506667297" lon="34.6847086027"><ele>165.00</ele><time>2026-08-22T12:04:29Z</time></trkpt><trkpt lat="59.3506420869" lon="34.6845539566"><ele>165.00</ele><time>2026-08-22T12:04:45Z</time></trkpt><trkpt lat="59.3506549112" lon="34.6844278090"><ele>165.00</ele><time>2026-08-22T12:05:00Z</time></trkpt><trkpt lat="59.3506646343" lon="34.6844236180"><ele>165.00</ele><time>2026-08-22T12:05:35Z</time></trkpt><trkpt lat="59.3506586831" lon="34.6844518650"><ele>165.00</ele><time>2026-08-22T12:06:03Z</time></trkpt><trkpt lat="59.3506580126" lon="34.6844265517"><ele>165.00</ele><time>2026-08-22T12:06:38Z</time></trkpt><trkpt lat="59.3506807275" lon="34.6844016574"><ele>165.00</ele><time>2026-08-22T12:07:03Z</time></trkpt><trkpt lat="59.3506629579" lon="34.6843377873"><ele>165.00</ele><time>2026-08-22T12:07:46Z</time></trkpt><trkpt lat="59.3505715951" lon="34.6843149886"><ele>165.00</ele><time>2026-08-22T12:08:04Z</time></trkpt><trkpt lat="59.3505242374" lon="34.6842025034"><ele>165.48</ele><time>2026-08-22T12:08:23Z</time></trkpt><trkpt lat="59.3504716828" lon="34.6841227915"><ele>165.48</ele><time>2026-08-22T12:08:44Z</time></trkpt><trkpt lat="59.3503617961" lon="34.6840077918"><ele>165.48</ele><time>2026-08-22T12:09:00Z</time></trkpt><trkpt lat="59.3502806593" lon="34.6838615276"><ele>165.48</ele><time>2026-08-22T12:09:16Z</time></trkpt><trkpt lat="59.3502416834" lon="34.6838370524"><ele>164.52</ele><time>2026-08-22T12:09:33Z</time></trkpt><trkpt lat="59.3501851056" lon="34.6837304346"><ele>164.04</ele><time>2026-08-22T12:09:49Z</time></trkpt><trkpt lat="59.3501583673" lon="34.6837108210"><ele>164.04</ele><time>2026-08-22T12:10:02Z</time></trkpt><trkpt lat="59.3501721974" lon="34.6836965717"><ele>163.56</ele><time>2026-08-22T12:10:21Z</time></trkpt><trkpt lat="59.3501441181" lon="34.6836513933"><ele>163.56</ele><time>2026-08-22T12:10:41Z</time></trkpt><trkpt lat="59.3501055613" lon="34.6836863458"><ele>163.56</ele><time>2026-08-22T12:11:00Z</time></trkpt><trkpt lat="59.3500130251" lon="34.6836553328"><ele>163.56</ele><time>2026-08-22T12:11:17Z</time></trkpt><trkpt lat="59.3499881309" lon="34.6835760400"><ele>163.56</ele><time>2026-08-22T12:11:38Z</time></trkpt><trkpt lat="59.3499659188" lon="34.6834166162"><ele>163.56</ele><time>2026-08-22T12:11:55Z</time></trkpt><trkpt lat="59.3499752227" lon="34.6832567733"><ele>163.56</ele><time>2026-08-22T12:12:12Z</time></trkpt><trkpt lat="59.3499750551" lon="34.6832101699"><ele>163.56</ele><time>2026-08-22T12:12:16Z</time></trkpt><trkpt lat="59.3499698583" lon="34.6831612196"><ele>163.56</ele><time>2026-08-22T12:12:32Z</time></trkpt><trkpt lat="59.3499552738" lon="34.6829948388"><ele>164.52</ele><time>2026-08-22T12:12:44Z</time></trkpt><trkpt lat="59.3499284517" lon="34.6828724630"><ele>165.00</ele><time>2026-08-22T12:13:01Z</time></trkpt><trkpt lat="59.3499034736" lon="34.6827668510"><ele>165.00</ele><time>2026-08-22T12:13:30Z</time></trkpt><trkpt lat="59.3499036413" lon="34.6827991214"><ele>165.00</ele><time>2026-08-22T12:14:07Z</time></trkpt><trkpt lat="59.3498907331" lon="34.6828023065"><ele>165.48</ele><time>2026-08-22T12:15:01Z</time></trkpt><trkpt lat="59.3498988636" lon="34.6828203276"><ele>165.96</ele><time>2026-08-22T12:15:29Z</time></trkpt><trkpt lat="59.3499672599" lon="34.6827692818"><ele>165.96</ele><time>2026-08-22T12:15:55Z</time></trkpt><trkpt lat="59.3500206526" lon="34.6828391869"><ele>166.45</ele><time>2026-08-22T12:16:01Z</time></trkpt><trkpt lat="59.3500431161" lon="34.6828741394"><ele>166.45</ele><time>2026-08-22T12:16:04Z</time></trkpt><trkpt lat="59.3501209840" lon="34.6831386723"><ele>166.45</ele><time>2026-08-22T12:16:23Z</time></trkpt><trkpt lat="59.3502011988" lon="34.6832057275"><ele>166.45</ele><time>2026-08-22T12:16:38Z</time></trkpt><trkpt lat="59.3502014503" lon="34.6832702681"><ele>166.45</ele><time>2026-08-22T12:16:52Z</time></trkpt><trkpt lat="59.3502272666" lon="34.6833555959"><ele>166.45</ele><time>2026-08-22T12:17:05Z</time></trkpt><trkpt lat="59.3503227364" lon="34.6832596231"><ele>166.45</ele><time>2026-08-22T12:17:23Z</time></trkpt><trkpt lat="59.3503816612" lon="34.6832497325"><ele>166.45</ele><time>2026-08-22T12:17:36Z</time></trkpt><trkpt lat="59.3504463695" lon="34.6833814960"><ele>166.45</ele><time>2026-08-22T12:17:49Z</time></trkpt><trkpt lat="59.3504845072" lon="34.6833804902"><ele>166.45</ele><time>2026-08-22T12:17:53Z</time></trkpt><trkpt lat="59.3505713437" lon="34.6833044663"><ele>166.45</ele><time>2026-08-22T12:18:03Z</time></trkpt><trkpt lat="59.3506151810" lon="34.6832903009"><ele>165.48</ele><time>2026-08-22T12:18:24Z</time></trkpt><trkpt lat="59.3506409973" lon="34.6833069809"><ele>165.00</ele><time>2026-08-22T12:18:44Z</time></trkpt><trkpt lat="59.3507217150" lon="34.6833623014"><ele>165.00</ele><time>2026-08-22T12:19:00Z</time></trkpt><trkpt lat="59.3507688213" lon="34.6834013611"><ele>165.00</ele><time>2026-08-22T12:19:05Z</time></trkpt><trkpt lat="59.3508269917" lon="34.6834571846"><ele>165.00</ele><time>2026-08-22T12:19:19Z</time></trkpt><trkpt lat="59.3508985732" lon="34.6834103297"><ele>165.96</ele><time>2026-08-22T12:19:39Z</time></trkpt><trkpt lat="59.3509068713" lon="34.6834647283"><ele>165.96</ele><time>2026-08-22T12:20:21Z</time></trkpt><trkpt lat="59.3510038499" lon="34.6834839229"><ele>165.96</ele><time>2026-08-22T12:20:36Z</time></trkpt><trkpt lat="59.3510802928" lon="34.6835364774"><ele>165.96</ele><time>2026-08-22T12:20:49Z</time></trkpt><trkpt lat="59.3511420675" lon="34.6835197974"><ele>166.93</ele><time>2026-08-22T12:21:12Z</time></trkpt><trkpt lat="59.3512113020" lon="34.6836280916"><ele>167.41</ele><time>2026-08-22T12:21:28Z</time></trkpt><trkpt lat="59.3512688018" lon="34.6837472823"><ele>167.89</ele><time>2026-08-22T12:21:47Z</time></trkpt><trkpt lat="59.3513128068" lon="34.6838525590"><ele>167.89</ele><time>2026-08-22T12:22:05Z</time></trkpt><trkpt lat="59.3513574824" lon="34.6838581748"><ele>167.89</ele><time>2026-08-22T12:22:13Z</time></trkpt><trkpt lat="59.3514539581" lon="34.6839849092"><ele>167.89</ele><time>2026-08-22T12:22:33Z</time></trkpt><trkpt lat="59.3514599092" lon="34.6839217935"><ele>167.89</ele><time>2026-08-22T12:22:49Z</time></trkpt><trkpt lat="59.3514792714" lon="34.6840586700"><ele>167.89</ele><time>2026-08-22T12:23:06Z</time></trkpt><trkpt lat="59.3514910061" lon="34.6841828898"><ele>167.89</ele><time>2026-08-22T12:23:44Z</time></trkpt><trkpt lat="59.3515268806" lon="34.6841144934"><ele>168.37</ele><time>2026-08-22T12:24:19Z</time></trkpt><trkpt lat="59.3514807802" lon="34.6841945406"><ele>168.37</ele><time>2026-08-22T12:24:47Z</time></trkpt><trkpt lat="59.3514620047" lon="34.6843408048"><ele>168.37</ele><time>2026-08-22T12:25:03Z</time></trkpt><trkpt lat="59.3514760025" lon="34.6845599078"><ele>168.85</ele><time>2026-08-22T12:25:21Z</time></trkpt><trkpt lat="59.3514870666" lon="34.6847256180"><ele>168.85</ele><time>2026-08-22T12:25:36Z</time></trkpt><trkpt lat="59.3514921796" lon="34.6847456507"><ele>168.85</ele><time>2026-08-22T12:25:38Z</time></trkpt><trkpt lat="59.3515137210" lon="34.6849212516"><ele>168.85</ele><time>2026-08-22T12:25:54Z</time></trkpt><trkpt lat="59.3514952809" lon="34.6851264406"><ele>167.89</ele><time>2026-08-22T12:26:10Z</time></trkpt><trkpt lat="59.3514424749" lon="34.6853495669"><ele>167.41</ele><time>2026-08-22T12:26:26Z</time></trkpt><trkpt lat="59.3514368590" lon="34.6853859443"><ele>167.41</ele><time>2026-08-22T12:26:28Z</time></trkpt><trkpt lat="59.3514413852" lon="34.6855781414"><ele>166.93</ele><time>2026-08-22T12:26:45Z</time></trkpt><trkpt lat="59.3513386231" lon="34.6855953243"><ele>166.45</ele><time>2026-08-22T12:27:07Z</time></trkpt><trkpt lat="59.3513479270" lon="34.6857260820"><ele>166.45</ele><time>2026-08-22T12:27:31Z</time></trkpt><trkpt lat="59.3513551354" lon="34.6858534031"><ele>166.45</ele><time>2026-08-22T12:27:43Z</time></trkpt><trkpt lat="59.3513689656" lon="34.6859494597"><ele>166.45</ele><time>2026-08-22T12:28:04Z</time></trkpt><trkpt lat="59.3514313269" lon="34.6860371344"><ele>166.45</ele><time>2026-08-22T12:28:20Z</time></trkpt><trkpt lat="59.3514583167" lon="34.6861587558"><ele>166.45</ele><time>2026-08-22T12:28:34Z</time></trkpt><trkpt lat="59.3514762539" lon="34.6862941235"><ele>166.45</ele><time>2026-08-22T12:28:50Z</time></trkpt><trkpt lat="59.3514722306" lon="34.6864310838"><ele>166.45</ele><time>2026-08-22T12:29:05Z</time></trkpt><trkpt lat="59.3514860608" lon="34.6866195090"><ele>166.45</ele><time>2026-08-22T12:29:27Z</time></trkpt><trkpt lat="59.3514664471" lon="34.6867929306"><ele>166.45</ele><time>2026-08-22T12:29:43Z</time></trkpt><trkpt lat="59.3514613342" lon="34.6868510172"><ele>166.45</ele><time>2026-08-22T12:29:49Z</time></trkpt><trkpt lat="59.3514672015" lon="34.6870851237"><ele>165.96</ele><time>2026-08-22T12:30:12Z</time></trkpt><trkpt lat="59.3514542934" lon="34.6872546896"><ele>165.96</ele><time>2026-08-22T12:30:27Z</time></trkpt><trkpt lat="59.3514702190" lon="34.6873712819"><ele>165.96</ele><time>2026-08-22T12:30:43Z</time></trkpt><trkpt lat="59.3514636811" lon="34.6874989383"><ele>165.96</ele><time>2026-08-22T12:30:59Z</time></trkpt><trkpt lat="59.3514564727" lon="34.6875124332"><ele>165.96</ele><time>2026-08-22T12:31:00Z</time></trkpt><trkpt lat="59.3514474202" lon="34.6876822505"><ele>165.96</ele><time>2026-08-22T12:31:20Z</time></trkpt><trkpt lat="59.3514270522" lon="34.6878265869"><ele>165.96</ele><time>2026-08-22T12:31:36Z</time></trkpt><trkpt lat="59.3513881601" lon="34.6880378108"><ele>165.48</ele><time>2026-08-22T12:31:55Z</time></trkpt><trkpt lat="59.3513488490" lon="34.6881979052"><ele>165.96</ele><time>2026-08-22T12:32:21Z</time></trkpt><trkpt lat="59.3514306564" lon="34.6882170998"><ele>165.96</ele><time>2026-08-22T12:32:42Z</time></trkpt><trkpt lat="59.3514486775" lon="34.6882193629"><ele>165.96</ele><time>2026-08-22T12:32:44Z</time></trkpt><trkpt lat="59.3515017349" lon="34.6883271541"><ele>165.96</ele><time>2026-08-22T12:33:01Z</time></trkpt><trkpt lat="59.3515798543" lon="34.6883574128"><ele>165.96</ele><time>2026-08-22T12:33:18Z</time></trkpt><trkpt lat="59.3515688740" lon="34.6884787828"><ele>165.96</ele><time>2026-08-22T12:33:35Z</time></trkpt><trkpt lat="59.3515168224" lon="34.6885708999"><ele>165.96</ele><time>2026-08-22T12:34:03Z</time></trkpt><trkpt lat="59.3515588995" lon="34.6886138152"><ele>165.96</ele><time>2026-08-22T12:34:13Z</time></trkpt><trkpt lat="59.3515865598" lon="34.6886691358"><ele>166.93</ele><time>2026-08-22T12:34:37Z</time></trkpt><trkpt lat="59.3516435567" lon="34.6888071019"><ele>166.93</ele><time>2026-08-22T12:34:54Z</time></trkpt><trkpt lat="59.3516442273" lon="34.6888017375"><ele>167.89</ele><time>2026-08-22T12:35:14Z</time></trkpt><trkpt lat="59.3516602367" lon="34.6888326667"><ele>167.89</ele><time>2026-08-22T12:35:17Z</time></trkpt><trkpt lat="59.3516381085" lon="34.6889772546"><ele>168.37</ele><time>2026-08-22T12:35:43Z</time></trkpt><trkpt lat="59.3516703788" lon="34.6891379356"><ele>168.37</ele><time>2026-08-22T12:35:59Z</time></trkpt><trkpt lat="59.3516856339" lon="34.6893234272"><ele>168.37</ele><time>2026-08-22T12:36:15Z</time></trkpt><trkpt lat="59.3516489211" lon="34.6893616486"><ele>168.37</ele><time>2026-08-22T12:36:25Z</time></trkpt><trkpt lat="59.3516687863" lon="34.6895541809"><ele>168.85</ele><time>2026-08-22T12:36:44Z</time></trkpt><trkpt lat="59.3516300619" lon="34.6897327155"><ele>169.33</ele><time>2026-08-22T12:37:02Z</time></trkpt><trkpt lat="59.3515944388" lon="34.6899052151"><ele>169.33</ele><time>2026-08-22T12:37:16Z</time></trkpt><trkpt lat="59.3515728135" lon="34.6900429297"><ele>169.81</ele><time>2026-08-22T12:37:32Z</time></trkpt><trkpt lat="59.3516039103" lon="34.6901817340"><ele>169.81</ele><time>2026-08-22T12:37:45Z</time></trkpt><trkpt lat="59.3515262101" lon="34.6904084645"><ele>169.81</ele><time>2026-08-22T12:38:03Z</time></trkpt><trkpt lat="59.3515504338" lon="34.6905651223"><ele>169.81</ele><time>2026-08-22T12:38:18Z</time></trkpt><trkpt lat="59.3516073469" lon="34.6906599216"><ele>169.81</ele><time>2026-08-22T12:38:31Z</time></trkpt><trkpt lat="59.3516201712" lon="34.6906600893"><ele>169.81</ele><time>2026-08-22T12:38:32Z</time></trkpt><trkpt lat="59.3517199159" lon="34.6906917728"><ele>169.81</ele><time>2026-08-22T12:38:47Z</time></trkpt><trkpt lat="59.3517267890" lon="34.6908177529"><ele>169.81</ele><time>2026-08-22T12:39:01Z</time></trkpt><trkpt lat="59.3518257793" lon="34.6909877378"><ele>169.33</ele><time>2026-08-22T12:39:26Z</time></trkpt><trkpt lat="59.3518576305" lon="34.6910231095"><ele>169.33</ele><time>2026-08-22T12:39:34Z</time></trkpt><trkpt lat="59.3519250210" lon="34.6912010573"><ele>169.33</ele><time>2026-08-22T12:39:53Z</time></trkpt><trkpt lat="59.3519871309" lon="34.6913189068"><ele>169.33</ele><time>2026-08-22T12:40:08Z</time></trkpt><trkpt lat="59.3519732170" lon="34.6914841142"><ele>169.33</ele><time>2026-08-22T12:40:26Z</time></trkpt><trkpt lat="59.3519424554" lon="34.6914803423"><ele>169.33</ele><time>2026-08-22T12:40:29Z</time></trkpt><trkpt lat="59.3518350832" lon="34.6915587969"><ele>169.33</ele><time>2026-08-22T12:40:57Z</time></trkpt><trkpt lat="59.3519105203" lon="34.6917048935"><ele>169.33</ele><time>2026-08-22T12:41:14Z</time></trkpt><trkpt lat="59.3519215006" lon="34.6917058155"><ele>169.33</ele><time>2026-08-22T12:41:16Z</time></trkpt><trkpt lat="59.3519197404" lon="34.6918737050"><ele>168.37</ele><time>2026-08-22T12:41:32Z</time></trkpt><trkpt lat="59.3518501706" lon="34.6919762995"><ele>167.89</ele><time>2026-08-22T12:41:52Z</time></trkpt><trkpt lat="59.3517547008" lon="34.6920866892"><ele>167.41</ele><time>2026-08-22T12:42:12Z</time></trkpt><trkpt lat="59.3518532719" lon="34.6922081430"><ele>167.41</ele><time>2026-08-22T12:42:33Z</time></trkpt><trkpt lat="59.3518534396" lon="34.6923606098"><ele>166.93</ele><time>2026-08-22T12:42:53Z</time></trkpt><trkpt lat="59.3517973647" lon="34.6925150882"><ele>166.93</ele><time>2026-08-22T12:43:13Z</time></trkpt><trkpt lat="59.3518423755" lon="34.6926372964"><ele>166.45</ele><time>2026-08-22T12:43:32Z</time></trkpt><trkpt lat="59.3518127035" lon="34.6926107258"><ele>166.45</ele><time>2026-08-22T12:43:52Z</time></trkpt><trkpt lat="59.3517887313" lon="34.6926189400"><ele>166.45</ele><time>2026-08-22T12:43:59Z</time></trkpt><trkpt lat="59.3517340813" lon="34.6927144099"><ele>165.96</ele><time>2026-08-22T12:44:17Z</time></trkpt><trkpt lat="59.3517039064" lon="34.6928641107"><ele>165.48</ele><time>2026-08-22T12:44:32Z</time></trkpt><trkpt lat="59.3516650982" lon="34.6930003166"><ele>165.48</ele><time>2026-08-22T12:44:48Z</time></trkpt><trkpt lat="59.3517128751" lon="34.6930666175"><ele>165.48</ele><time>2026-08-22T12:45:07Z</time></trkpt><trkpt lat="59.3518061657" lon="34.6932171565"><ele>165.48</ele><time>2026-08-22T12:45:24Z</time></trkpt><trkpt lat="59.3518219236" lon="34.6932403743"><ele>165.48</ele><time>2026-08-22T12:45:39Z</time></trkpt><trkpt lat="59.3518179841" lon="34.6932747401"><ele>165.48</ele><time>2026-08-22T12:45:54Z</time></trkpt><trkpt lat="59.3518536910" lon="34.6932951920"><ele>165.48</ele><time>2026-08-22T12:46:21Z</time></trkpt><trkpt lat="59.3518032320" lon="34.6932561323"><ele>165.48</ele><time>2026-08-22T12:46:45Z</time></trkpt><trkpt lat="59.3517945986" lon="34.6931941062"><ele>165.48</ele><time>2026-08-22T12:47:09Z</time></trkpt><trkpt lat="59.3518033158" lon="34.6932417993"><ele>165.48</ele><time>2026-08-22T12:47:39Z</time></trkpt><trkpt lat="59.3517713808" lon="34.6932794340"><ele>165.48</ele><time>2026-08-22T12:48:08Z</time></trkpt><trkpt lat="59.3517471571" lon="34.6933088545"><ele>165.48</ele><time>2026-08-22T12:48:33Z</time></trkpt><trkpt lat="59.3517583050" lon="34.6932387818"><ele>165.48</ele><time>2026-08-22T12:49:02Z</time></trkpt><trkpt lat="59.3517909106" lon="34.6932528634"><ele>165.48</ele><time>2026-08-22T12:49:35Z</time></trkpt><trkpt lat="59.3517405353" lon="34.6932694595"><ele>165.96</ele><time>2026-08-22T12:50:09Z</time></trkpt><trkpt lat="59.3517819420" lon="34.6933407057"><ele>165.96</ele><time>2026-08-22T12:50:36Z</time></trkpt><trkpt lat="59.3518404476" lon="34.6933115367"><ele>165.96</ele><time>2026-08-22T12:51:04Z</time></trkpt><trkpt lat="59.3518731371" lon="34.6932205092"><ele>165.96</ele><time>2026-08-22T12:51:24Z</time></trkpt><trkpt lat="59.3517919164" lon="34.6932849661"><ele>166.45</ele><time>2026-08-22T12:51:47Z</time></trkpt><trkpt lat="59.3517780863" lon="34.6932878159"><ele>166.45</ele><time>2026-08-22T12:52:25Z</time></trkpt><trkpt lat="59.3517743982" lon="34.6932620835"><ele>166.45</ele><time>2026-08-22T12:52:54Z</time></trkpt><trkpt lat="59.3517536111" lon="34.6932381112"><ele>166.93</ele><time>2026-08-22T12:53:24Z</time></trkpt><trkpt lat="59.3517941795" lon="34.6933288034"><ele>166.93</ele><time>2026-08-22T12:53:45Z</time></trkpt><trkpt lat="59.3517804332" lon="34.6931887418"><ele>166.93</ele><time>2026-08-22T12:54:03Z</time></trkpt><trkpt lat="59.3517724704" lon="34.6932713874"><ele>166.93</ele><time>2026-08-22T12:54:44Z</time></trkpt><trkpt lat="59.3518044055" lon="34.6932123788"><ele>166.45</ele><time>2026-08-22T12:55:23Z</time></trkpt><trkpt lat="59.3518160563" lon="34.6932567190"><ele>166.45</ele><time>2026-08-22T12:55:55Z</time></trkpt><trkpt lat="59.3517823610" lon="34.6932351775"><ele>166.45</ele><time>2026-08-22T12:56:19Z</time></trkpt><trkpt lat="59.3517778348" lon="34.6932828706"><ele>166.45</ele><time>2026-08-22T12:56:44Z</time></trkpt><trkpt lat="59.3518018909" lon="34.6933282167"><ele>166.45</ele><time>2026-08-22T12:57:30Z</time></trkpt><trkpt lat="59.3517848756" lon="34.6932950243"><ele>166.45</ele><time>2026-08-22T12:58:00Z</time></trkpt><trkpt lat="59.3517989572" lon="34.6933106147"><ele>167.41</ele><time>2026-08-22T12:58:22Z</time></trkpt><trkpt lat="59.3517851271" lon="34.6933276299"><ele>167.89</ele><time>2026-08-22T12:58:49Z</time></trkpt><trkpt lat="59.3517953530" lon="34.6932734828"><ele>167.89</ele><time>2026-08-22T12:59:17Z</time></trkpt><trkpt lat="59.3518884759" lon="34.6933428012"><ele>167.89</ele><time>2026-08-22T12:59:35Z</time></trkpt><trkpt lat="59.3519512564" lon="34.6932982933"><ele>167.89</ele><time>2026-08-22T12:59:54Z</time></trkpt><trkpt lat="59.3520419486" lon="34.6933014784"><ele>167.89</ele><time>2026-08-22T13:00:17Z</time></trkpt><trkpt lat="59.3521085847" lon="34.6934215911"><ele>167.89</ele><time>2026-08-22T13:00:32Z</time></trkpt><trkpt lat="59.3522186391" lon="34.6935032308"><ele>167.89</ele><time>2026-08-22T13:00:46Z</time></trkpt><trkpt lat="59.3522229977" lon="34.6936547756"><ele>167.89</ele><time>2026-08-22T13:01:03Z</time></trkpt><trkpt lat="59.3522457965" lon="34.6937837731"><ele>168.37</ele><time>2026-08-22T13:01:18Z</time></trkpt><trkpt lat="59.3522767257" lon="34.6939445380"><ele>168.37</ele><time>2026-08-22T13:01:36Z</time></trkpt><trkpt lat="59.3522709422" lon="34.6939468011"><ele>168.37</ele><time>2026-08-22T13:01:38Z</time></trkpt><trkpt lat="59.3522688467" lon="34.6940027922"><ele>168.85</ele><time>2026-08-22T13:02:01Z</time></trkpt><trkpt lat="59.3523140252" lon="34.6939943265"><ele>168.37</ele><time>2026-08-22T13:02:37Z</time></trkpt><trkpt lat="59.3524238281" lon="34.6940083243"><ele>168.37</ele><time>2026-08-22T13:02:53Z</time></trkpt><trkpt lat="59.3524921406" lon="34.6938723698"><ele>168.37</ele><time>2026-08-22T13:03:07Z</time></trkpt><trkpt lat="59.3524981756" lon="34.6938063204"><ele>168.37</ele><time>2026-08-22T13:03:11Z</time></trkpt><trkpt lat="59.3526026141" lon="34.6938059013"><ele>168.37</ele><time>2026-08-22T13:03:29Z</time></trkpt><trkpt lat="59.3527238164" lon="34.6936673485"><ele>168.85</ele><time>2026-08-22T13:03:47Z</time></trkpt><trkpt lat="59.3527312763" lon="34.6937012114"><ele>169.33</ele><time>2026-08-22T13:04:05Z</time></trkpt><trkpt lat="59.3527207151" lon="34.6936680190"><ele>168.85</ele><time>2026-08-22T13:04:51Z</time></trkpt><trkpt lat="59.3526793085" lon="34.6936916560"><ele>168.85</ele><time>2026-08-22T13:05:20Z</time></trkpt><trkpt lat="59.3526585214" lon="34.6936225053"><ele>168.85</ele><time>2026-08-22T13:05:30Z</time></trkpt><trkpt lat="59.3526614551" lon="34.6935674362"><ele>168.85</ele><time>2026-08-22T13:05:49Z</time></trkpt><trkpt lat="59.3527192902" lon="34.6934602316"><ele>168.85</ele><time>2026-08-22T13:06:05Z</time></trkpt><trkpt lat="59.3527443521" lon="34.6932497621"><ele>168.85</ele><time>2026-08-22T13:06:22Z</time></trkpt><trkpt lat="59.3527712580" lon="34.6931863111"><ele>168.85</ele><time>2026-08-22T13:06:30Z</time></trkpt><trkpt lat="59.3528025225" lon="34.6930189244"><ele>169.33</ele><time>2026-08-22T13:06:44Z</time></trkpt><trkpt lat="59.3528197054" lon="34.6930273902"><ele>169.33</ele><time>2026-08-22T13:07:05Z</time></trkpt><trkpt lat="59.3528243992" lon="34.6928383783"><ele>169.33</ele><time>2026-08-22T13:07:31Z</time></trkpt><trkpt lat="59.3527192064" lon="34.6927590854"><ele>169.81</ele><time>2026-08-22T13:08:09Z</time></trkpt><trkpt lat="59.3526678253" lon="34.6927500330"><ele>169.81</ele><time>2026-08-22T13:08:16Z</time></trkpt><trkpt lat="59.3525477126" lon="34.6926702373"><ele>169.81</ele><time>2026-08-22T13:08:31Z</time></trkpt><trkpt lat="59.3524729460" lon="34.6926533896"><ele>169.81</ele><time>2026-08-22T13:08:54Z</time></trkpt><trkpt lat="59.3524624687" lon="34.6926084626"><ele>169.81</ele><time>2026-08-22T13:09:11Z</time></trkpt><trkpt lat="59.3524737004" lon="34.6925837360"><ele>169.81</ele><time>2026-08-22T13:09:33Z</time></trkpt><trkpt lat="59.3524408434" lon="34.6926225442"><ele>169.81</ele><time>2026-08-22T13:09:52Z</time></trkpt><trkpt lat="59.3525172025" lon="34.6924661379"><ele>169.81</ele><time>2026-08-22T13:10:07Z</time></trkpt><trkpt lat="59.3525402527" lon="34.6923442651"><ele>169.81</ele><time>2026-08-22T13:10:14Z</time></trkpt><trkpt lat="59.3525931425" lon="34.6921260003"><ele>169.81</ele><time>2026-08-22T13:10:33Z</time></trkpt><trkpt lat="59.3526184559" lon="34.6919351444"><ele>169.81</ele><time>2026-08-22T13:10:46Z</time></trkpt><trkpt lat="59.3526483793" lon="34.6916783229"><ele>169.81</ele><time>2026-08-22T13:11:03Z</time></trkpt><trkpt lat="59.3526542466" lon="34.6916324738"><ele>169.81</ele><time>2026-08-22T13:11:08Z</time></trkpt><trkpt lat="59.3526163604" lon="34.6914570406"><ele>169.81</ele><time>2026-08-22T13:11:26Z</time></trkpt><trkpt lat="59.3526456133" lon="34.6912619099"><ele>169.81</ele><time>2026-08-22T13:11:48Z</time></trkpt><trkpt lat="59.3525404204" lon="34.6913026460"><ele>169.81</ele><time>2026-08-22T13:12:02Z</time></trkpt><trkpt lat="59.3524826691" lon="34.6912261192"><ele>169.81</ele><time>2026-08-22T13:12:19Z</time></trkpt><trkpt lat="59.3523918930" lon="34.6911339182"><ele>169.81</ele><time>2026-08-22T13:12:47Z</time></trkpt><trkpt lat="59.3524016999" lon="34.6910470817"><ele>170.29</ele><time>2026-08-22T13:13:06Z</time></trkpt><trkpt lat="59.3524216488" lon="34.6910332516"><ele>170.29</ele><time>2026-08-22T13:13:10Z</time></trkpt><trkpt lat="59.3524954095" lon="34.6908232011"><ele>170.77</ele><time>2026-08-22T13:13:28Z</time></trkpt><trkpt lat="59.3524687551" lon="34.6905976441"><ele>170.77</ele><time>2026-08-22T13:13:47Z</time></trkpt><trkpt lat="59.3524965830" lon="34.6903760266"><ele>170.77</ele><time>2026-08-22T13:14:05Z</time></trkpt><trkpt lat="59.3524890393" lon="34.6902628709"><ele>170.77</ele><time>2026-08-22T13:14:13Z</time></trkpt><trkpt lat="59.3525566813" lon="34.6900950652"><ele>170.77</ele><time>2026-08-22T13:14:31Z</time></trkpt><trkpt lat="59.3525897898" lon="34.6900135092"><ele>170.77</ele><time>2026-08-22T13:14:49Z</time></trkpt><trkpt lat="59.3525667395" lon="34.6898953244"><ele>170.77</ele><time>2026-08-22T13:15:10Z</time></trkpt><trkpt lat="59.3526000157" lon="34.6897606272"><ele>170.77</ele><time>2026-08-22T13:15:26Z</time></trkpt><trkpt lat="59.3525171187" lon="34.6896733716"><ele>170.77</ele><time>2026-08-22T13:15:43Z</time></trkpt><trkpt lat="59.3524537515" lon="34.6895648260"><ele>170.77</ele><time>2026-08-22T13:16:00Z</time></trkpt><trkpt lat="59.3524321262" lon="34.6894717030"><ele>170.77</ele><time>2026-08-22T13:16:17Z</time></trkpt><trkpt lat="59.3524219841" lon="34.6894724574"><ele>170.77</ele><time>2026-08-22T13:17:04Z</time></trkpt><trkpt lat="59.3524990138" lon="34.6893293783"><ele>170.77</ele><time>2026-08-22T13:17:20Z</time></trkpt><trkpt lat="59.3525533285" lon="34.6892013028"><ele>170.77</ele><time>2026-08-22T13:17:31Z</time></trkpt><trkpt lat="59.3526088167" lon="34.6890288871"><ele>170.77</ele><time>2026-08-22T13:17:45Z</time></trkpt><trkpt lat="59.3525802344" lon="34.6890064236"><ele>170.77</ele><time>2026-08-22T13:17:50Z</time></trkpt><trkpt lat="59.3525639735" lon="34.6889178269"><ele>170.77</ele><time>2026-08-22T13:18:08Z</time></trkpt><trkpt lat="59.3525470421" lon="34.6889148094"><ele>171.25</ele><time>2026-08-22T13:18:26Z</time></trkpt><trkpt lat="59.3524716888" lon="34.6888050064"><ele>171.25</ele><time>2026-08-22T13:18:38Z</time></trkpt><trkpt lat="59.3524402566" lon="34.6888018213"><ele>171.25</ele><time>2026-08-22T13:18:46Z</time></trkpt><trkpt lat="59.3523804937" lon="34.6887947805"><ele>171.25</ele><time>2026-08-22T13:18:52Z</time></trkpt><trkpt lat="59.3523001950" lon="34.6887119673"><ele>171.25</ele><time>2026-08-22T13:19:07Z</time></trkpt><trkpt lat="59.3522434495" lon="34.6885637753"><ele>171.25</ele><time>2026-08-22T13:19:23Z</time></trkpt><trkpt lat="59.3522755522" lon="34.6884639468"><ele>171.25</ele><time>2026-08-22T13:19:40Z</time></trkpt><trkpt lat="59.3523607124" lon="34.6882826462"><ele>171.25</ele><time>2026-08-22T13:19:57Z</time></trkpt><trkpt lat="59.3523887079" lon="34.6880877670"><ele>170.77</ele><time>2026-08-22T13:20:13Z</time></trkpt><trkpt lat="59.3524473812" lon="34.6878861822"><ele>170.77</ele><time>2026-08-22T13:20:29Z</time></trkpt><trkpt lat="59.3525061384" lon="34.6876609605"><ele>170.77</ele><time>2026-08-22T13:20:45Z</time></trkpt><trkpt lat="59.3525580224" lon="34.6874170471"><ele>170.77</ele><time>2026-08-22T13:21:02Z</time></trkpt><trkpt lat="59.3525538314" lon="34.6873841062"><ele>170.77</ele><time>2026-08-22T13:21:07Z</time></trkpt><trkpt lat="59.3525033724" lon="34.6873334795"><ele>170.77</ele><time>2026-08-22T13:21:42Z</time></trkpt><trkpt lat="59.3524675816" lon="34.6873276122"><ele>170.77</ele><time>2026-08-22T13:22:02Z</time></trkpt><trkpt lat="59.3524044659" lon="34.6873401850"><ele>170.77</ele><time>2026-08-22T13:22:15Z</time></trkpt><trkpt lat="59.3523226585" lon="34.6872610599"><ele>170.77</ele><time>2026-08-22T13:22:33Z</time></trkpt><trkpt lat="59.3522121850" lon="34.6871376783"><ele>170.77</ele><time>2026-08-22T13:22:51Z</time></trkpt><trkpt lat="59.3521591276" lon="34.6869989578"><ele>170.77</ele><time>2026-08-22T13:23:07Z</time></trkpt><trkpt lat="59.3521756399" lon="34.6868835390"><ele>170.77</ele><time>2026-08-22T13:23:20Z</time></trkpt><trkpt lat="59.3522102572" lon="34.6866754163"><ele>170.77</ele><time>2026-08-22T13:23:37Z</time></trkpt><trkpt lat="59.3522073235" lon="34.6864813752"><ele>170.77</ele><time>2026-08-22T13:23:55Z</time></trkpt><trkpt lat="59.3524234928" lon="34.6842975542"><ele>185.67</ele><time>2026-08-22T13:39:28Z</time></trkpt><trkpt lat="59.3524500635" lon="34.6843417268"><ele>182.79</ele><time>2026-08-22T13:39:34Z</time></trkpt><trkpt lat="59.3524770532" lon="34.6843091212"><ele>179.42</ele><time>2026-08-22T13:39:41Z</time></trkpt><trkpt lat="59.3526525702" lon="34.6843834687"><ele>176.54</ele><time>2026-08-22T13:40:06Z</time></trkpt><trkpt lat="59.3528080545" lon="34.6845335048"><ele>176.54</ele><time>2026-08-22T13:40:38Z</time></trkpt><trkpt lat="59.3528308533" lon="34.6847164817"><ele>176.54</ele><time>2026-08-22T13:40:57Z</time></trkpt><trkpt lat="59.3528733496" lon="34.6848785039"><ele>176.54</ele><time>2026-08-22T13:41:20Z</time></trkpt><trkpt lat="59.3527702522" lon="34.6850885544"><ele>176.54</ele><time>2026-08-22T13:41:35Z</time></trkpt><trkpt lat="59.3527774606" lon="34.6849826071"><ele>176.06</ele><time>2026-08-22T13:42:18Z</time></trkpt><trkpt lat="59.3527640495" lon="34.6849503368"><ele>176.06</ele><time>2026-08-22T13:42:55Z</time></trkpt><trkpt lat="59.3528757803" lon="34.6850038134"><ele>176.06</ele><time>2026-08-22T13:43:20Z</time></trkpt><trkpt lat="59.3529521395" lon="34.6850481536"><ele>176.06</ele><time>2026-08-22T13:43:46Z</time></trkpt><trkpt lat="59.3529111519" lon="34.6851598006"><ele>176.06</ele><time>2026-08-22T13:44:01Z</time></trkpt><trkpt lat="59.3528480362" lon="34.6853690129"><ele>176.06</ele><time>2026-08-22T13:44:18Z</time></trkpt><trkpt lat="59.3527957331" lon="34.6854612976"><ele>175.58</ele><time>2026-08-22T13:44:28Z</time></trkpt><trkpt lat="59.3527839147" lon="34.6856037062"><ele>175.58</ele><time>2026-08-22T13:44:43Z</time></trkpt><trkpt lat="59.3527762033" lon="34.6856693365"><ele>175.58</ele><time>2026-08-22T13:44:50Z</time></trkpt><trkpt lat="59.3526973296" lon="34.6858082246"><ele>175.58</ele><time>2026-08-22T13:45:05Z</time></trkpt><trkpt lat="59.3526763748" lon="34.6859607752"><ele>175.58</ele><time>2026-08-22T13:45:22Z</time></trkpt><trkpt lat="59.3527299352" lon="34.6859863400"><ele>176.54</ele><time>2026-08-22T13:45:41Z</time></trkpt><trkpt lat="59.3527479563" lon="34.6860163473"><ele>176.54</ele><time>2026-08-22T13:45:44Z</time></trkpt><trkpt lat="59.3527940568" lon="34.6861678921"><ele>176.06</ele><time>2026-08-22T13:45:55Z</time></trkpt><trkpt lat="59.3528526463" lon="34.6862186864"><ele>176.54</ele><time>2026-08-22T13:46:08Z</time></trkpt><trkpt lat="59.3528872635" lon="34.6862455923"><ele>176.54</ele><time>2026-08-22T13:46:19Z</time></trkpt><trkpt lat="59.3529013451" lon="34.6862512920"><ele>176.54</ele><time>2026-08-22T13:46:21Z</time></trkpt><trkpt lat="59.3529885169" lon="34.6863300819"><ele>176.54</ele><time>2026-08-22T13:46:34Z</time></trkpt><trkpt lat="59.3529945519" lon="34.6864313353"><ele>176.54</ele><time>2026-08-22T13:47:07Z</time></trkpt><trkpt lat="59.3530072086" lon="34.6864805371"><ele>176.06</ele><time>2026-08-22T13:47:21Z</time></trkpt><trkpt lat="59.3530042749" lon="34.6865605004"><ele>176.54</ele><time>2026-08-22T13:47:35Z</time></trkpt><trkpt lat="59.3530591764" lon="34.6869111154"><ele>176.54</ele><time>2026-08-22T13:47:55Z</time></trkpt><trkpt lat="59.3531217892" lon="34.6870375983"><ele>176.54</ele><time>2026-08-22T13:48:12Z</time></trkpt><trkpt lat="59.3531094678" lon="34.6872544382"><ele>176.54</ele><time>2026-08-22T13:48:28Z</time></trkpt><trkpt lat="59.3531165086" lon="34.6873752214"><ele>176.54</ele><time>2026-08-22T13:48:42Z</time></trkpt><trkpt lat="59.3531382177" lon="34.6875633113"><ele>176.54</ele><time>2026-08-22T13:48:54Z</time></trkpt><trkpt lat="59.3531576637" lon="34.6877473779"><ele>177.02</ele><time>2026-08-22T13:49:12Z</time></trkpt><trkpt lat="59.3531591725" lon="34.6878786385"><ele>177.02</ele><time>2026-08-22T13:49:22Z</time></trkpt><trkpt lat="59.3531668838" lon="34.6880946402"><ele>177.50</ele><time>2026-08-22T13:49:35Z</time></trkpt><trkpt lat="59.3531058636" lon="34.6883396432"><ele>177.50</ele><time>2026-08-22T13:49:48Z</time></trkpt><trkpt lat="59.3531011697" lon="34.6884786151"><ele>177.02</ele><time>2026-08-22T13:49:58Z</time></trkpt><trkpt lat="59.3530313484" lon="34.6885850653"><ele>177.50</ele><time>2026-08-22T13:50:17Z</time></trkpt><trkpt lat="59.3530045263" lon="34.6886640228"><ele>177.98</ele><time>2026-08-22T13:50:39Z</time></trkpt><trkpt lat="59.3530109804" lon="34.6887685452"><ele>177.98</ele><time>2026-08-22T13:50:51Z</time></trkpt><trkpt lat="59.3529786263" lon="34.6889186651"><ele>177.98</ele><time>2026-08-22T13:51:05Z</time></trkpt><trkpt lat="59.3529418297" lon="34.6890236065"><ele>177.98</ele><time>2026-08-22T13:51:13Z</time></trkpt><trkpt lat="59.3528974894" lon="34.6892388538"><ele>177.98</ele><time>2026-08-22T13:51:30Z</time></trkpt><trkpt lat="59.3528394867" lon="34.6892800927"><ele>177.50</ele><time>2026-08-22T13:51:39Z</time></trkpt><trkpt lat="59.3528402410" lon="34.6894499939"><ele>177.50</ele><time>2026-08-22T13:51:58Z</time></trkpt><trkpt lat="59.3528970703" lon="34.6895584557"><ele>177.50</ele><time>2026-08-22T13:52:13Z</time></trkpt><trkpt lat="59.3528977409" lon="34.6895666700"><ele>177.50</ele><time>2026-08-22T13:52:14Z</time></trkpt><trkpt lat="59.3529570010" lon="34.6897804923"><ele>177.50</ele><time>2026-08-22T13:52:34Z</time></trkpt><trkpt lat="59.3530267384" lon="34.6898243297"><ele>177.50</ele><time>2026-08-22T13:52:48Z</time></trkpt><trkpt lat="59.3530743476" lon="34.6900532395"><ele>177.50</ele><time>2026-08-22T13:53:04Z</time></trkpt><trkpt lat="59.3530844059" lon="34.6902033594"><ele>177.50</ele><time>2026-08-22T13:53:21Z</time></trkpt><trkpt lat="59.3530242238" lon="34.6903397329"><ele>177.50</ele><time>2026-08-22T13:53:34Z</time></trkpt><trkpt lat="59.3529950548" lon="34.6903601009"><ele>177.50</ele><time>2026-08-22T13:53:37Z</time></trkpt><trkpt lat="59.3529518042" lon="34.6904097218"><ele>177.98</ele><time>2026-08-22T13:53:42Z</time></trkpt><trkpt lat="59.3530045263" lon="34.6904134937"><ele>177.98</ele><time>2026-08-22T13:54:07Z</time></trkpt><trkpt lat="59.3530250620" lon="34.6905317623"><ele>177.98</ele><time>2026-08-22T13:54:30Z</time></trkpt><trkpt lat="59.3529734295" lon="34.6905797906"><ele>178.46</ele><time>2026-08-22T13:54:49Z</time></trkpt><trkpt lat="59.3530515488" lon="34.6905695647"><ele>178.46</ele><time>2026-08-22T13:55:03Z</time></trkpt><trkpt lat="59.3531166762" lon="34.6906615980"><ele>178.46</ele><time>2026-08-22T13:55:19Z</time></trkpt><trkpt lat="59.3531306740" lon="34.6906752605"><ele>177.98</ele><time>2026-08-22T13:55:39Z</time></trkpt><trkpt lat="59.3531549815" lon="34.6909056790"><ele>177.98</ele><time>2026-08-22T13:55:58Z</time></trkpt><trkpt lat="59.3531546462" lon="34.6910475008"><ele>177.98</ele><time>2026-08-22T13:56:09Z</time></trkpt><trkpt lat="59.3531320989" lon="34.6911334153"><ele>177.98</ele><time>2026-08-22T13:56:16Z</time></trkpt><trkpt lat="59.3531305902" lon="34.6913199127"><ele>178.46</ele><time>2026-08-22T13:56:35Z</time></trkpt><trkpt lat="59.3531443365" lon="34.6913788375"><ele>178.46</ele><time>2026-08-22T13:56:44Z</time></trkpt><trkpt lat="59.3531328533" lon="34.6914615668"><ele>178.46</ele><time>2026-08-22T13:56:48Z</time></trkpt><trkpt lat="59.3530562427" lon="34.6916171350"><ele>178.46</ele><time>2026-08-22T13:57:04Z</time></trkpt><trkpt lat="59.3530015089" lon="34.6917955019"><ele>178.46</ele><time>2026-08-22T13:57:21Z</time></trkpt><trkpt lat="59.3529795483" lon="34.6919172909"><ele>178.46</ele><time>2026-08-22T13:57:41Z</time></trkpt><trkpt lat="59.3530708272" lon="34.6920315363"><ele>177.98</ele><time>2026-08-22T13:57:57Z</time></trkpt><trkpt lat="59.3531388883" lon="34.6922407486"><ele>177.98</ele><time>2026-08-22T13:58:13Z</time></trkpt><trkpt lat="59.3531831447" lon="34.6922734380"><ele>177.98</ele><time>2026-08-22T13:58:29Z</time></trkpt><trkpt lat="59.3530989066" lon="34.6922800597"><ele>177.98</ele><time>2026-08-22T13:58:58Z</time></trkpt><trkpt lat="59.3531428277" lon="34.6922871005"><ele>177.98</ele><time>2026-08-22T13:59:08Z</time></trkpt><trkpt lat="59.3531891797" lon="34.6922363900"><ele>177.50</ele><time>2026-08-22T13:59:31Z</time></trkpt><trkpt lat="59.3532370403" lon="34.6922571771"><ele>177.50</ele><time>2026-08-22T13:59:59Z</time></trkpt><trkpt lat="59.3532527145" lon="34.6921579354"><ele>177.50</ele><time>2026-08-22T14:00:24Z</time></trkpt><trkpt lat="59.3532432429" lon="34.6921735257"><ele>177.50</ele><time>2026-08-22T14:00:54Z</time></trkpt><trkpt lat="59.3532320950" lon="34.6922125015"><ele>177.50</ele><time>2026-08-22T14:01:21Z</time></trkpt><trkpt lat="59.3531320989" lon="34.6922769584"><ele>177.50</ele><time>2026-08-22T14:01:55Z</time></trkpt><trkpt lat="59.3531735893" lon="34.6922874358"><ele>177.50</ele><time>2026-08-22T14:02:24Z</time></trkpt><trkpt lat="59.3531767745" lon="34.6923445165"><ele>177.50</ele><time>2026-08-22T14:02:55Z</time></trkpt><trkpt lat="59.3531811330" lon="34.6923193708"><ele>177.50</ele><time>2026-08-22T14:03:19Z</time></trkpt><trkpt lat="59.3532164209" lon="34.6922751144"><ele>177.50</ele><time>2026-08-22T14:03:48Z</time></trkpt><trkpt lat="59.3532154150" lon="34.6923207119"><ele>177.98</ele><time>2026-08-22T14:04:29Z</time></trkpt><trkpt lat="59.3532003276" lon="34.6923454385"><ele>177.98</ele><time>2026-08-22T14:04:59Z</time></trkpt><trkpt lat="59.3531863298" lon="34.6923294291"><ele>177.98</ele><time>2026-08-22T14:05:21Z</time></trkpt><trkpt lat="59.3531175144" lon="34.6924026869"><ele>177.98</ele><time>2026-08-22T14:05:48Z</time></trkpt><trkpt lat="59.3531616032" lon="34.6925237216"><ele>177.98</ele><time>2026-08-22T14:06:06Z</time></trkpt><trkpt lat="59.3532064464" lon="34.6926695667"><ele>177.50</ele><time>2026-08-22T14:06:22Z</time></trkpt><trkpt lat="59.3532734178" lon="34.6927217860"><ele>177.50</ele><time>2026-08-22T14:06:40Z</time></trkpt><trkpt lat="59.3532898463" lon="34.6929480135"><ele>177.50</ele><time>2026-08-22T14:06:54Z</time></trkpt><trkpt lat="59.3532751780" lon="34.6931581479"><ele>177.50</ele><time>2026-08-22T14:07:14Z</time></trkpt><trkpt lat="59.3532914389" lon="34.6931713913"><ele>177.50</ele><time>2026-08-22T14:07:16Z</time></trkpt><trkpt lat="59.3533494417" lon="34.6933193319"><ele>177.50</ele><time>2026-08-22T14:07:36Z</time></trkpt><trkpt lat="59.3533713184" lon="34.6933512669"><ele>177.50</ele><time>2026-08-22T14:07:44Z</time></trkpt><trkpt lat="59.3533983082" lon="34.6934199985"><ele>177.50</ele><time>2026-08-22T14:07:49Z</time></trkpt><trkpt lat="59.3533560634" lon="34.6937595494"><ele>177.02</ele><time>2026-08-22T14:08:14Z</time></trkpt><trkpt lat="59.3532930315" lon="34.6938960068"><ele>177.02</ele><time>2026-08-22T14:08:30Z</time></trkpt><trkpt lat="59.3532710709" lon="34.6940752957"><ele>177.02</ele><time>2026-08-22T14:08:46Z</time></trkpt><trkpt lat="59.3531873357" lon="34.6942198835"><ele>175.58</ele><time>2026-08-22T14:09:04Z</time></trkpt><trkpt lat="59.3530922011" lon="34.6943123359"><ele>175.58</ele><time>2026-08-22T14:09:24Z</time></trkpt><trkpt lat="59.3531429116" lon="34.6943029482"><ele>175.58</ele><time>2026-08-22T14:09:33Z</time></trkpt><trkpt lat="59.3531996571" lon="34.6944196243"><ele>175.58</ele><time>2026-08-22T14:09:51Z</time></trkpt><trkpt lat="59.3532975577" lon="34.6945440117"><ele>175.10</ele><time>2026-08-22T14:10:08Z</time></trkpt><trkpt lat="59.3532947917" lon="34.6946221311"><ele>175.10</ele><time>2026-08-22T14:10:31Z</time></trkpt><trkpt lat="59.3533086218" lon="34.6946437564"><ele>175.10</ele><time>2026-08-22T14:11:06Z</time></trkpt><trkpt lat="59.3533943687" lon="34.6945869271"><ele>175.10</ele><time>2026-08-22T14:11:23Z</time></trkpt><trkpt lat="59.3534054328" lon="34.6945813950"><ele>175.10</ele><time>2026-08-22T14:11:25Z</time></trkpt><trkpt lat="59.3535501044" lon="34.6945037786"><ele>174.62</ele><time>2026-08-22T14:11:42Z</time></trkpt><trkpt lat="59.3536203448" lon="34.6944741067"><ele>174.62</ele><time>2026-08-22T14:11:59Z</time></trkpt><trkpt lat="59.3536980450" lon="34.6944171935"><ele>174.62</ele><time>2026-08-22T14:12:15Z</time></trkpt><trkpt lat="59.3537763320" lon="34.6944220550"><ele>174.62</ele><time>2026-08-22T14:12:33Z</time></trkpt><trkpt lat="59.3538378552" lon="34.6944398247"><ele>174.62</ele><time>2026-08-22T14:12:49Z</time></trkpt><trkpt lat="59.3539209198" lon="34.6944549959"><ele>174.62</ele><time>2026-08-22T14:13:13Z</time></trkpt><trkpt lat="59.3539185729" lon="34.6944487933"><ele>175.10</ele><time>2026-08-22T14:13:33Z</time></trkpt><trkpt lat="59.3539786711" lon="34.6944719274"><ele>175.10</ele><time>2026-08-22T14:13:46Z</time></trkpt><trkpt lat="59.3540827744" lon="34.6944860090"><ele>175.10</ele><time>2026-08-22T14:14:06Z</time></trkpt><trkpt lat="59.3540679384" lon="34.6943230648"><ele>175.10</ele><time>2026-08-22T14:14:28Z</time></trkpt><trkpt lat="59.3539652601" lon="34.6942512318"><ele>175.10</ele><time>2026-08-22T14:14:58Z</time></trkpt><trkpt lat="59.3539760727" lon="34.6942038741"><ele>175.10</ele><time>2026-08-22T14:15:01Z</time></trkpt><trkpt lat="59.3540241010" lon="34.6940403432"><ele>175.58</ele><time>2026-08-22T14:15:17Z</time></trkpt><trkpt lat="59.3540482409" lon="34.6937706135"><ele>175.58</ele><time>2026-08-22T14:15:33Z</time></trkpt><trkpt lat="59.3540916592" lon="34.6936537698"><ele>176.06</ele><time>2026-08-22T14:15:50Z</time></trkpt><trkpt lat="59.3540921621" lon="34.6936695278"><ele>176.06</ele><time>2026-08-22T14:16:10Z</time></trkpt><trkpt lat="59.3540184852" lon="34.6934414562"><ele>176.06</ele><time>2026-08-22T14:16:27Z</time></trkpt><trkpt lat="59.3539960217" lon="34.6933933441"><ele>176.06</ele><time>2026-08-22T14:16:31Z</time></trkpt><trkpt lat="59.3539393600" lon="34.6932912525"><ele>176.06</ele><time>2026-08-22T14:16:39Z</time></trkpt><trkpt lat="59.3538904097" lon="34.6930224448"><ele>175.58</ele><time>2026-08-22T14:16:56Z</time></trkpt><trkpt lat="59.3538547028" lon="34.6928016655"><ele>175.58</ele><time>2026-08-22T14:17:11Z</time></trkpt><trkpt lat="59.3537878990" lon="34.6926916111"><ele>176.06</ele><time>2026-08-22T14:17:27Z</time></trkpt><trkpt lat="59.3537131324" lon="34.6924821474"><ele>176.06</ele><time>2026-08-22T14:17:44Z</time></trkpt><trkpt lat="59.3536625896" lon="34.6923589334"><ele>176.06</ele><time>2026-08-22T14:17:59Z</time></trkpt><trkpt lat="59.3536744919" lon="34.6921514813"><ele>176.06</ele><time>2026-08-22T14:18:17Z</time></trkpt><trkpt lat="59.3537153956" lon="34.6919603739"><ele>176.06</ele><time>2026-08-22T14:18:33Z</time></trkpt><trkpt lat="59.3537272140" lon="34.6918885410"><ele>176.54</ele><time>2026-08-22T14:18:51Z</time></trkpt><trkpt lat="59.3537578080" lon="34.6919247508"><ele>176.06</ele><time>2026-08-22T14:19:04Z</time></trkpt><trkpt lat="59.3538660184" lon="34.6919486392"><ele>176.06</ele><time>2026-08-22T14:19:19Z</time></trkpt><trkpt lat="59.3539533578" lon="34.6919188835"><ele>176.06</ele><time>2026-08-22T14:19:37Z</time></trkpt><trkpt lat="59.3539663497" lon="34.6918271016"><ele>176.06</ele><time>2026-08-22T14:20:00Z</time></trkpt><trkpt lat="59.3539906573" lon="34.6915729623"><ele>176.06</ele><time>2026-08-22T14:20:16Z</time></trkpt><trkpt lat="59.3540405296" lon="34.6913460642"><ele>176.54</ele><time>2026-08-22T14:20:31Z</time></trkpt><trkpt lat="59.3539824430" lon="34.6911901608"><ele>176.54</ele><time>2026-08-22T14:20:47Z</time></trkpt><trkpt lat="59.3539570458" lon="34.6911691222"><ele>177.02</ele><time>2026-08-22T14:21:07Z</time></trkpt><trkpt lat="59.3539589737" lon="34.6910413820"><ele>177.02</ele><time>2026-08-22T14:21:38Z</time></trkpt><trkpt lat="59.3539844546" lon="34.6909611672"><ele>177.50</ele><time>2026-08-22T14:22:00Z</time></trkpt><trkpt lat="59.3539812695" lon="34.6909443196"><ele>177.50</ele><time>2026-08-22T14:22:03Z</time></trkpt><trkpt lat="59.3539860472" lon="34.6909729019"><ele>177.50</ele><time>2026-08-22T14:22:17Z</time></trkpt><trkpt lat="59.3540015537" lon="34.6907367837"><ele>177.50</ele><time>2026-08-22T14:22:33Z</time></trkpt><trkpt lat="59.3539979495" lon="34.6906168386"><ele>177.50</ele><time>2026-08-22T14:22:50Z</time></trkpt><trkpt lat="59.3539825268" lon="34.6905833948"><ele>177.50</ele><time>2026-08-22T14:22:56Z</time></trkpt><trkpt lat="59.3539549503" lon="34.6904528048"><ele>177.50</ele><time>2026-08-22T14:23:13Z</time></trkpt><trkpt lat="59.3539290503" lon="34.6902205423"><ele>177.02</ele><time>2026-08-22T14:23:31Z</time></trkpt><trkpt lat="59.3539323192" lon="34.6901172772"><ele>177.02</ele><time>2026-08-22T14:23:41Z</time></trkpt><trkpt lat="59.3539730553" lon="34.6900366433"><ele>177.02</ele><time>2026-08-22T14:23:47Z</time></trkpt><trkpt lat="59.3539671041" lon="34.6899130940"><ele>177.02</ele><time>2026-08-22T14:23:55Z</time></trkpt><trkpt lat="59.3539137114" lon="34.6896198113"><ele>176.06</ele><time>2026-08-22T14:24:19Z</time></trkpt><trkpt lat="59.3538933434" lon="34.6894283686"><ele>176.06</ele><time>2026-08-22T14:24:35Z</time></trkpt><trkpt lat="59.3538376875" lon="34.6892241016"><ele>175.58</ele><time>2026-08-22T14:24:56Z</time></trkpt><trkpt lat="59.3538042437" lon="34.6890768316"><ele>175.58</ele><time>2026-08-22T14:25:19Z</time></trkpt><trkpt lat="59.3538833689" lon="34.6889996342"><ele>175.58</ele><time>2026-08-22T14:25:40Z</time></trkpt><trkpt lat="59.3539552856" lon="34.6887663659"><ele>175.58</ele><time>2026-08-22T14:26:00Z</time></trkpt><trkpt lat="59.3540091813" lon="34.6886522043"><ele>175.58</ele><time>2026-08-22T14:26:15Z</time></trkpt><trkpt lat="59.3540482409" lon="34.6886066906"><ele>175.58</ele><time>2026-08-22T14:26:19Z</time></trkpt><trkpt lat="59.3539544474" lon="34.6884474345"><ele>175.58</ele><time>2026-08-22T14:26:40Z</time></trkpt><trkpt lat="59.3539318163" lon="34.6883220412"><ele>175.58</ele><time>2026-08-22T14:26:51Z</time></trkpt><trkpt lat="59.3539034855" lon="34.6882794611"><ele>176.54</ele><time>2026-08-22T14:26:56Z</time></trkpt><trkpt lat="59.3537643459" lon="34.6882534772"><ele>176.54</ele><time>2026-08-22T14:27:12Z</time></trkpt><trkpt lat="59.3536839634" lon="34.6882694867"><ele>176.54</ele><time>2026-08-22T14:27:28Z</time></trkpt><trkpt lat="59.3536996376" lon="34.6882404014"><ele>176.54</ele><time>2026-08-22T14:27:56Z</time></trkpt><trkpt lat="59.3537100311" lon="34.6880246513"><ele>176.06</ele><time>2026-08-22T14:28:13Z</time></trkpt><trkpt lat="59.3537196703" lon="34.6878460329"><ele>176.06</ele><time>2026-08-22T14:28:32Z</time></trkpt><trkpt lat="59.3537325785" lon="34.6877586935"><ele>176.06</ele><time>2026-08-22T14:28:54Z</time></trkpt><trkpt lat="59.3537280522" lon="34.6875873674"><ele>175.58</ele><time>2026-08-22T14:29:15Z</time></trkpt><trkpt lat="59.3537934311" lon="34.6874929033"><ele>175.58</ele><time>2026-08-22T14:29:36Z</time></trkpt><trkpt lat="59.3538469076" lon="34.6876172908"><ele>175.58</ele><time>2026-08-22T14:30:06Z</time></trkpt><trkpt lat="59.3539304752" lon="34.6874374989"><ele>175.10</ele><time>2026-08-22T14:30:27Z</time></trkpt><trkpt lat="59.3539655954" lon="34.6872479841"><ele>175.10</ele><time>2026-08-22T14:30:49Z</time></trkpt><trkpt lat="59.3539332412" lon="34.6872087568"><ele>175.10</ele><time>2026-08-22T14:30:54Z</time></trkpt><trkpt lat="59.3539436348" lon="34.6869756561"><ele>175.10</ele><time>2026-08-22T14:31:08Z</time></trkpt><trkpt lat="59.3539979495" lon="34.6867674496"><ele>175.10</ele><time>2026-08-22T14:31:26Z</time></trkpt><trkpt lat="59.3539362587" lon="34.6865718998"><ele>175.10</ele><time>2026-08-22T14:31:49Z</time></trkpt><trkpt lat="59.3538766634" lon="34.6864004899"><ele>174.62</ele><time>2026-08-22T14:32:14Z</time></trkpt><trkpt lat="59.3538496736" lon="34.6862750128"><ele>174.62</ele><time>2026-08-22T14:32:31Z</time></trkpt><trkpt lat="59.3538329937" lon="34.6859925427"><ele>174.62</ele><time>2026-08-22T14:32:53Z</time></trkpt><trkpt lat="59.3537947722" lon="34.6859399881"><ele>174.14</ele><time>2026-08-22T14:33:09Z</time></trkpt><trkpt lat="59.3537360989" lon="34.6858943906"><ele>174.14</ele><time>2026-08-22T14:33:30Z</time></trkpt><trkpt lat="59.3537432235" lon="34.6858313587"><ele>174.14</ele><time>2026-08-22T14:33:32Z</time></trkpt><trkpt lat="59.3537511025" lon="34.6855887026"><ele>174.62</ele><time>2026-08-22T14:33:54Z</time></trkpt><trkpt lat="59.3536703847" lon="34.6854317933"><ele>174.62</ele><time>2026-08-22T14:34:16Z</time></trkpt><trkpt lat="59.3536384497" lon="34.6853333060"><ele>174.62</ele><time>2026-08-22T14:34:33Z</time></trkpt><trkpt lat="59.3536348455" lon="34.6852484811"><ele>174.62</ele><time>2026-08-22T14:34:45Z</time></trkpt><trkpt lat="59.3536859751" lon="34.6853201464"><ele>174.62</ele><time>2026-08-22T14:35:23Z</time></trkpt><trkpt lat="59.3536689598" lon="34.6852990240"><ele>174.62</ele><time>2026-08-22T14:35:53Z</time></trkpt><trkpt lat="59.3536576442" lon="34.6853025444"><ele>174.62</ele><time>2026-08-22T14:36:55Z</time></trkpt><trkpt lat="59.3536487594" lon="34.6852638200"><ele>174.62</ele><time>2026-08-22T14:37:14Z</time></trkpt><trkpt lat="59.3535831291" lon="34.6851659194"><ele>174.62</ele><time>2026-08-22T14:37:46Z</time></trkpt><trkpt lat="59.3536024913" lon="34.6852524206"><ele>174.14</ele><time>2026-08-22T14:38:21Z</time></trkpt><trkpt lat="59.3535614200" lon="34.6852095891"><ele>174.14</ele><time>2026-08-22T14:38:47Z</time></trkpt><trkpt lat="59.3535815366" lon="34.6852018777"><ele>174.14</ele><time>2026-08-22T14:39:11Z</time></trkpt><trkpt lat="59.3536436465" lon="34.6852374170"><ele>174.62</ele><time>2026-08-22T14:40:00Z</time></trkpt><trkpt lat="59.3536031619" lon="34.6851995308"><ele>174.14</ele><time>2026-08-22T14:40:30Z</time></trkpt><trkpt lat="59.3536122143" lon="34.6851564478"><ele>174.14</ele><time>2026-08-22T14:41:07Z</time></trkpt><trkpt lat="59.3536207639" lon="34.6851302125"><ele>174.62</ele><time>2026-08-22T14:41:35Z</time></trkpt><trkpt lat="59.3536209315" lon="34.6851229202"><ele>174.62</ele><time>2026-08-22T14:42:00Z</time></trkpt><trkpt lat="59.3536248710" lon="34.6851836052"><ele>174.62</ele><time>2026-08-22T14:42:32Z</time></trkpt><trkpt lat="59.3536217697" lon="34.6851972677"><ele>174.62</ele><time>2026-08-22T14:43:24Z</time></trkpt><trkpt lat="59.3536123820" lon="34.6851717867"><ele>174.62</ele><time>2026-08-22T14:44:07Z</time></trkpt><trkpt lat="59.3535980489" lon="34.6851261891"><ele>174.62</ele><time>2026-08-22T14:44:45Z</time></trkpt><trkpt lat="59.3536136393" lon="34.6853153687"><ele>175.10</ele><time>2026-08-22T14:45:19Z</time></trkpt><trkpt lat="59.3535972107" lon="34.6851645783"><ele>175.10</ele><time>2026-08-22T14:46:03Z</time></trkpt><trkpt lat="59.3536200095" lon="34.6852140315"><ele>175.10</ele><time>2026-08-22T14:46:36Z</time></trkpt><trkpt lat="59.3535851408" lon="34.6851490717"><ele>175.10</ele><time>2026-08-22T14:47:10Z</time></trkpt><trkpt lat="59.3535922654" lon="34.6851349901"><ele>175.58</ele><time>2026-08-22T14:47:43Z</time></trkpt><trkpt lat="59.3535858952" lon="34.6852008719"><ele>175.58</ele><time>2026-08-22T14:48:21Z</time></trkpt><trkpt lat="59.3536305707" lon="34.6851534303"><ele>175.58</ele><time>2026-08-22T14:49:09Z</time></trkpt><trkpt lat="59.3536223564" lon="34.6851438750"><ele>176.54</ele><time>2026-08-22T14:49:40Z</time></trkpt><trkpt lat="59.3535962887" lon="34.6850912366"><ele>176.54</ele><time>2026-08-22T14:50:11Z</time></trkpt><trkpt lat="59.3536008988" lon="34.6851413604"><ele>176.54</ele><time>2026-08-22T14:50:47Z</time></trkpt><trkpt lat="59.3536041677" lon="34.6852374170"><ele>176.54</ele><time>2026-08-22T14:51:43Z</time></trkpt><trkpt lat="59.3536181655" lon="34.6851989441"><ele>176.54</ele><time>2026-08-22T14:52:18Z</time></trkpt><trkpt lat="59.3536019884" lon="34.6851965133"><ele>176.54</ele><time>2026-08-22T14:53:06Z</time></trkpt><trkpt lat="59.3535752501" lon="34.6851912327"><ele>176.54</ele><time>2026-08-22T14:54:02Z</time></trkpt><trkpt lat="59.3535772618" lon="34.6852274425"><ele>176.54</ele><time>2026-08-22T14:55:01Z</time></trkpt><trkpt lat="59.3535934389" lon="34.6853003651"><ele>176.54</ele><time>2026-08-22T14:55:30Z</time></trkpt><trkpt lat="59.3536225241" lon="34.6853300370"><ele>176.54</ele><time>2026-08-22T14:56:12Z</time></trkpt><trkpt lat="59.3536583986" lon="34.6854088269"><ele>176.06</ele><time>2026-08-22T14:56:35Z</time></trkpt><trkpt lat="59.3536833767" lon="34.6853660792"><ele>176.06</ele><time>2026-08-22T14:57:02Z</time></trkpt><trkpt lat="59.3537365180" lon="34.6854022052"><ele>176.06</ele><time>2026-08-22T14:57:22Z</time></trkpt><trkpt lat="59.3537756614" lon="34.6854669973"><ele>176.06</ele><time>2026-08-22T14:57:42Z</time></trkpt><trkpt lat="59.3538418785" lon="34.6854790673"><ele>176.06</ele><time>2026-08-22T14:57:59Z</time></trkpt><trkpt lat="59.3538566306" lon="34.6854802407"><ele>176.06</ele><time>2026-08-22T14:58:01Z</time></trkpt><trkpt lat="59.3538992107" lon="34.6855066437"><ele>176.06</ele><time>2026-08-22T14:58:06Z</time></trkpt><trkpt lat="59.3539458979" lon="34.6855615452"><ele>176.06</ele><time>2026-08-22T14:58:14Z</time></trkpt><trkpt lat="59.3539622426" lon="34.6857108269"><ele>176.06</ele><time>2026-08-22T14:58:26Z</time></trkpt><trkpt lat="59.3539918307" lon="34.6859576739"><ele>176.06</ele><time>2026-08-22T14:58:45Z</time></trkpt><trkpt lat="59.3541038129" lon="34.6860285848"><ele>176.06</ele><time>2026-08-22T14:59:07Z</time></trkpt><trkpt lat="59.3541598041" lon="34.6859508846"><ele>176.06</ele><time>2026-08-22T14:59:21Z</time></trkpt><trkpt lat="59.3542490713" lon="34.6859490406"><ele>176.06</ele><time>2026-08-22T14:59:40Z</time></trkpt><trkpt lat="59.3542976864" lon="34.6859933808"><ele>176.06</ele><time>2026-08-22T14:59:55Z</time></trkpt><trkpt lat="59.3543188088" lon="34.6859991644"><ele>176.06</ele><time>2026-08-22T15:00:03Z</time></trkpt><trkpt lat="59.3542756420" lon="34.6861301735"><ele>176.54</ele><time>2026-08-22T15:00:18Z</time></trkpt><trkpt lat="59.3542576209" lon="34.6860829834"><ele>176.06</ele><time>2026-08-22T15:00:50Z</time></trkpt><trkpt lat="59.3543093372" lon="34.6861321852"><ele>176.54</ele><time>2026-08-22T15:01:23Z</time></trkpt><trkpt lat="59.3543115165" lon="34.6862497833"><ele>176.54</ele><time>2026-08-22T15:01:37Z</time></trkpt><trkpt lat="59.3542892206" lon="34.6864021663"><ele>176.54</ele><time>2026-08-22T15:01:55Z</time></trkpt><trkpt lat="59.3542956747" lon="34.6866080258"><ele>176.54</ele><time>2026-08-22T15:02:09Z</time></trkpt><trkpt lat="59.3542345706" lon="34.6868941840"><ele>175.10</ele><time>2026-08-22T15:02:28Z</time></trkpt><trkpt lat="59.3541924935" lon="34.6870955173"><ele>175.10</ele><time>2026-08-22T15:02:44Z</time></trkpt><trkpt lat="59.3541944213" lon="34.6872350760"><ele>174.62</ele><time>2026-08-22T15:03:00Z</time></trkpt><trkpt lat="59.3542531785" lon="34.6873818431"><ele>174.62</ele><time>2026-08-22T15:03:16Z</time></trkpt><trkpt lat="59.3543188926" lon="34.6873758081"><ele>174.62</ele><time>2026-08-22T15:03:37Z</time></trkpt><trkpt lat="59.3543530907" lon="34.6874595433"><ele>174.62</ele><time>2026-08-22T15:03:45Z</time></trkpt><trkpt lat="59.3544029631" lon="34.6876378264"><ele>175.58</ele><time>2026-08-22T15:04:03Z</time></trkpt><trkpt lat="59.3544671685" lon="34.6877110004"><ele>175.58</ele><time>2026-08-22T15:04:23Z</time></trkpt><trkpt lat="59.3545972556" lon="34.6877666563"><ele>175.58</ele><time>2026-08-22T15:04:40Z</time></trkpt><trkpt lat="59.3546447810" lon="34.6877984237"><ele>175.58</ele><time>2026-08-22T15:04:59Z</time></trkpt><trkpt lat="59.3546224013" lon="34.6878171992"><ele>175.58</ele><time>2026-08-22T15:05:04Z</time></trkpt><trkpt lat="59.3546268437" lon="34.6878507268"><ele>175.58</ele><time>2026-08-22T15:05:35Z</time></trkpt><trkpt lat="59.3546351418" lon="34.6878424287"><ele>175.10</ele><time>2026-08-22T15:05:55Z</time></trkpt><trkpt lat="59.3546377402" lon="34.6877902094"><ele>175.10</ele><time>2026-08-22T15:06:11Z</time></trkpt><trkpt lat="59.3546464574" lon="34.6878963243"><ele>175.10</ele><time>2026-08-22T15:06:49Z</time></trkpt><trkpt lat="59.3547610380" lon="34.6878803149"><ele>174.14</ele><time>2026-08-22T15:07:07Z</time></trkpt><trkpt lat="59.3546824157" lon="34.6880691592"><ele>174.14</ele><time>2026-08-22T15:07:25Z</time></trkpt><trkpt lat="59.3547084834" lon="34.6883517969"><ele>174.14</ele><time>2026-08-22T15:07:42Z</time></trkpt><trkpt lat="59.3547441904" lon="34.6884636953"><ele>174.14</ele><time>2026-08-22T15:07:59Z</time></trkpt><trkpt lat="59.3548033666" lon="34.6886631846"><ele>173.66</ele><time>2026-08-22T15:08:17Z</time></trkpt><trkpt lat="59.3547684141" lon="34.6887796931"><ele>173.66</ele><time>2026-08-22T15:08:34Z</time></trkpt><trkpt lat="59.3547434360" lon="34.6888851374"><ele>173.66</ele><time>2026-08-22T15:08:40Z</time></trkpt><trkpt lat="59.3546463735" lon="34.6888715588"><ele>173.66</ele><time>2026-08-22T15:08:56Z</time></trkpt><trkpt lat="59.3546160311" lon="34.6888163220"><ele>173.66</ele><time>2026-08-22T15:09:04Z</time></trkpt><trkpt lat="59.3545109220" lon="34.6888872329"><ele>173.17</ele><time>2026-08-22T15:09:30Z</time></trkpt><trkpt lat="59.3544766400" lon="34.6889820322"><ele>173.17</ele><time>2026-08-22T15:09:44Z</time></trkpt><trkpt lat="59.3544607144" lon="34.6890922543"><ele>173.17</ele><time>2026-08-22T15:09:51Z</time></trkpt><trkpt lat="59.3544388376" lon="34.6892102715"><ele>173.17</ele><time>2026-08-22T15:09:58Z</time></trkpt><trkpt lat="59.3544343952" lon="34.6892447211"><ele>173.17</ele><time>2026-08-22T15:10:00Z</time></trkpt><trkpt lat="59.3544298690" lon="34.6894320566"><ele>173.17</ele><time>2026-08-22T15:10:18Z</time></trkpt><trkpt lat="59.3544071540" lon="34.6895654965"><ele>172.69</ele><time>2026-08-22T15:10:36Z</time></trkpt><trkpt lat="59.3544108421" lon="34.6896310430"><ele>172.69</ele><time>2026-08-22T15:10:43Z</time></trkpt><trkpt lat="59.3544847704" lon="34.6898501460"><ele>172.69</ele><time>2026-08-22T15:11:01Z</time></trkpt><trkpt lat="59.3545319606" lon="34.6899397485"><ele>172.69</ele><time>2026-08-22T15:11:10Z</time></trkpt><trkpt lat="59.3545914721" lon="34.6901114937"><ele>172.69</ele><time>2026-08-22T15:11:29Z</time></trkpt><trkpt lat="59.3545602914" lon="34.6902300976"><ele>173.66</ele><time>2026-08-22T15:11:52Z</time></trkpt><trkpt lat="59.3545742054" lon="34.6903824806"><ele>173.66</ele><time>2026-08-22T15:12:17Z</time></trkpt><trkpt lat="59.3545901310" lon="34.6906069480"><ele>174.14</ele><time>2026-08-22T15:12:34Z</time></trkpt><trkpt lat="59.3545915559" lon="34.6907171700"><ele>174.14</ele><time>2026-08-22T15:12:43Z</time></trkpt><trkpt lat="59.3546075653" lon="34.6909769252"><ele>174.14</ele><time>2026-08-22T15:13:03Z</time></trkpt><trkpt lat="59.3546160311" lon="34.6911160648"><ele>174.14</ele><time>2026-08-22T15:13:18Z</time></trkpt><trkpt lat="59.3546086550" lon="34.6911839582"><ele>173.66</ele><time>2026-08-22T15:13:25Z</time></trkpt><trkpt lat="59.3546171207" lon="34.6914343257"><ele>173.66</ele><time>2026-08-22T15:13:46Z</time></trkpt><trkpt lat="59.3546762969" lon="34.6912460681"><ele>173.66</ele><time>2026-08-22T15:14:03Z</time></trkpt><trkpt lat="59.3548747804" lon="34.6912038233"><ele>174.14</ele><time>2026-08-22T15:14:21Z</time></trkpt><trkpt lat="59.3549927138" lon="34.6913929190"><ele>174.14</ele><time>2026-08-22T15:14:41Z</time></trkpt><trkpt lat="59.3552124035" lon="34.6913163923"><ele>174.14</ele><time>2026-08-22T15:15:01Z</time></trkpt><trkpt lat="59.3553915247" lon="34.6911562141"><ele>174.14</ele><time>2026-08-22T15:15:19Z</time></trkpt><trkpt lat="59.3555547204" lon="34.6909755003"><ele>174.14</ele><time>2026-08-22T15:15:37Z</time></trkpt><trkpt lat="59.3556314986" lon="34.6908641048"><ele>174.14</ele><time>2026-08-22T15:15:46Z</time></trkpt><trkpt lat="59.3557827082" lon="34.6906748414"><ele>173.66</ele><time>2026-08-22T15:16:03Z</time></trkpt><trkpt lat="59.3557946105" lon="34.6906708181"><ele>173.66</ele><time>2026-08-22T15:16:04Z</time></trkpt><trkpt lat="59.3559600692" lon="34.6905160882"><ele>173.66</ele><time>2026-08-22T15:16:21Z</time></trkpt><trkpt lat="59.3560602330" lon="34.6904318500"><ele>173.66</ele><time>2026-08-22T15:16:37Z</time></trkpt><trkpt lat="59.3562757317" lon="34.6903399844"><ele>173.17</ele><time>2026-08-22T15:16:53Z</time></trkpt><trkpt lat="59.3563659210" lon="34.6902912017"><ele>173.17</ele><time>2026-08-22T15:17:04Z</time></trkpt><trkpt lat="59.3565010373" lon="34.6903318539"><ele>173.17</ele><time>2026-08-22T15:17:20Z</time></trkpt><trkpt lat="59.3565826770" lon="34.6903233882"><ele>172.69</ele><time>2026-08-22T15:17:31Z</time></trkpt><trkpt lat="59.3567167874" lon="34.6901920438"><ele>172.69</ele><time>2026-08-22T15:17:44Z</time></trkpt><trkpt lat="59.3568684999" lon="34.6899481304"><ele>172.69</ele><time>2026-08-22T15:18:02Z</time></trkpt><trkpt lat="59.3568999320" lon="34.6899077296"><ele>172.69</ele><time>2026-08-22T15:18:06Z</time></trkpt><trkpt lat="59.3569816556" lon="34.6897367388"><ele>172.69</ele><time>2026-08-22T15:18:18Z</time></trkpt><trkpt lat="59.3571545742" lon="34.6895674244"><ele>172.69</ele><time>2026-08-22T15:18:36Z</time></trkpt><trkpt lat="59.3571966514" lon="34.6895752195"><ele>172.69</ele><time>2026-08-22T15:18:42Z</time></trkpt><trkpt lat="59.3573507108" lon="34.6896144468"><ele>172.21</ele><time>2026-08-22T15:19:00Z</time></trkpt><trkpt lat="59.3573665526" lon="34.6896190569"><ele>172.21</ele><time>2026-08-22T15:19:02Z</time></trkpt><trkpt lat="59.3574540596" lon="34.6895551030"><ele>172.21</ele><time>2026-08-22T15:19:14Z</time></trkpt><trkpt lat="59.3576161657" lon="34.6893518418"><ele>172.21</ele><time>2026-08-22T15:19:31Z</time></trkpt><trkpt lat="59.3577366136" lon="34.6891916636"><ele>172.21</ele><time>2026-08-22T15:19:46Z</time></trkpt><trkpt lat="59.3578452431" lon="34.6890772507"><ele>172.21</ele><time>2026-08-22T15:20:00Z</time></trkpt><trkpt lat="59.3580011465" lon="34.6888620034"><ele>171.73</ele><time>2026-08-22T15:20:17Z</time></trkpt><trkpt lat="59.3581295572" lon="34.6887242049"><ele>171.73</ele><time>2026-08-22T15:20:33Z</time></trkpt><trkpt lat="59.3582320679" lon="34.6884418186"><ele>172.69</ele><time>2026-08-22T15:20:52Z</time></trkpt><trkpt lat="59.3582354207" lon="34.6884003282"><ele>172.69</ele><time>2026-08-22T15:20:55Z</time></trkpt><trkpt lat="59.3582704570" lon="34.6882206202"><ele>173.17</ele><time>2026-08-22T15:21:10Z</time></trkpt><trkpt lat="59.3581858836" lon="34.6881784592"><ele>173.17</ele><time>2026-08-22T15:21:48Z</time></trkpt><trkpt lat="59.3581513502" lon="34.6881874278"><ele>173.17</ele><time>2026-08-22T15:22:17Z</time></trkpt><trkpt lat="59.3581624143" lon="34.6881730109"><ele>173.66</ele><time>2026-08-22T15:22:46Z</time></trkpt><trkpt lat="59.3581951037" lon="34.6881826501"><ele>173.66</ele><time>2026-08-22T15:23:08Z</time></trkpt><trkpt lat="59.3582158908" lon="34.6881500445"><ele>173.66</ele><time>2026-08-22T15:23:31Z</time></trkpt><trkpt lat="59.3581943493" lon="34.6881580912"><ele>173.66</ele><time>2026-08-22T15:24:07Z</time></trkpt><trkpt lat="59.3581968639" lon="34.6881324425"><ele>174.14</ele><time>2026-08-22T15:24:41Z</time></trkpt><trkpt lat="59.3582445569" lon="34.6881324425"><ele>174.62</ele><time>2026-08-22T15:25:12Z</time></trkpt><trkpt lat="59.3582491670" lon="34.6881871764"><ele>174.62</ele><time>2026-08-22T15:25:57Z</time></trkpt><trkpt lat="59.3582433835" lon="34.6882158425"><ele>174.62</ele><time>2026-08-22T15:26:23Z</time></trkpt><trkpt lat="59.3582459819" lon="34.6882124897"><ele>174.62</ele><time>2026-08-22T15:26:46Z</time></trkpt><trkpt lat="59.3582018092" lon="34.6881787106"><ele>174.62</ele><time>2026-08-22T15:27:09Z</time></trkpt><trkpt lat="59.3581010588" lon="34.6881102305"><ele>174.62</ele><time>2026-08-22T15:27:20Z</time></trkpt><trkpt lat="59.3579979613" lon="34.6880758647"><ele>174.62</ele><time>2026-08-22T15:27:43Z</time></trkpt><trkpt lat="59.3579839636" lon="34.6880630404"><ele>174.62</ele><time>2026-08-22T15:27:45Z</time></trkpt><trkpt lat="59.3579129688" lon="34.6879047062"><ele>173.66</ele><time>2026-08-22T15:27:58Z</time></trkpt><trkpt lat="59.3578207679" lon="34.6878228150"><ele>173.66</ele><time>2026-08-22T15:28:16Z</time></trkpt><trkpt lat="59.3577620108" lon="34.6878104936"><ele>173.66</ele><time>2026-08-22T15:28:31Z</time></trkpt><trkpt lat="59.3577472586" lon="34.6878042910"><ele>173.66</ele><time>2026-08-22T15:28:33Z</time></trkpt><trkpt lat="59.3576914351" lon="34.6877659019"><ele>173.66</ele><time>2026-08-22T15:28:42Z</time></trkpt><trkpt lat="59.3575890083" lon="34.6877609566"><ele>173.66</ele><time>2026-08-22T15:29:00Z</time></trkpt><trkpt lat="59.3575470988" lon="34.6877798159"><ele>173.17</ele><time>2026-08-22T15:29:13Z</time></trkpt><trkpt lat="59.3574771937" lon="34.6877359785"><ele>173.17</ele><time>2026-08-22T15:29:30Z</time></trkpt><trkpt lat="59.3574561551" lon="34.6877638903"><ele>173.17</ele><time>2026-08-22T15:29:33Z</time></trkpt><trkpt lat="59.3573419936" lon="34.6878364775"><ele>173.17</ele><time>2026-08-22T15:29:53Z</time></trkpt><trkpt lat="59.3573034368" lon="34.6878043748"><ele>173.17</ele><time>2026-08-22T15:30:16Z</time></trkpt><trkpt lat="59.3573132437" lon="34.6878768783"><ele>173.17</ele><time>2026-08-22T15:30:33Z</time></trkpt><trkpt lat="59.3573101424" lon="34.6878592763"><ele>173.17</ele><time>2026-08-22T15:30:34Z</time></trkpt><trkpt lat="59.3572354596" lon="34.6878120024"><ele>173.17</ele><time>2026-08-22T15:30:55Z</time></trkpt><trkpt lat="59.3571842462" lon="34.6878140140"><ele>173.17</ele><time>2026-08-22T15:31:21Z</time></trkpt><trkpt lat="59.3572002556" lon="34.6877282672"><ele>173.17</ele><time>2026-08-22T15:31:37Z</time></trkpt><trkpt lat="59.3571249023" lon="34.6877027024"><ele>173.17</ele><time>2026-08-22T15:31:54Z</time></trkpt><trkpt lat="59.3570373952" lon="34.6877187118"><ele>173.17</ele><time>2026-08-22T15:32:11Z</time></trkpt><trkpt lat="59.3570455257" lon="34.6876958292"><ele>173.17</ele><time>2026-08-22T15:32:13Z</time></trkpt><trkpt lat="59.3570466992" lon="34.6876313724"><ele>173.17</ele><time>2026-08-22T15:32:18Z</time></trkpt><trkpt lat="59.3570275046" lon="34.6875178814"><ele>172.69</ele><time>2026-08-22T15:32:28Z</time></trkpt><trkpt lat="59.3569462840" lon="34.6873508301"><ele>173.66</ele><time>2026-08-22T15:32:49Z</time></trkpt><trkpt lat="59.3568959925" lon="34.6873157099"><ele>174.14</ele><time>2026-08-22T15:33:00Z</time></trkpt><trkpt lat="59.3567669112" lon="34.6872934978"><ele>174.14</ele><time>2026-08-22T15:33:18Z</time></trkpt><trkpt lat="59.3566732854" lon="34.6873099264"><ele>173.66</ele><time>2026-08-22T15:33:30Z</time></trkpt><trkpt lat="59.3565733731" lon="34.6872330643"><ele>173.66</ele><time>2026-08-22T15:33:50Z</time></trkpt><trkpt lat="59.3565108441" lon="34.6872633230"><ele>173.66</ele><time>2026-08-22T15:34:04Z</time></trkpt><trkpt lat="59.3564030528" lon="34.6872321423"><ele>172.69</ele><time>2026-08-22T15:34:29Z</time></trkpt><trkpt lat="59.3562970217" lon="34.6872855350"><ele>172.69</ele><time>2026-08-22T15:34:43Z</time></trkpt><trkpt lat="59.3561984506" lon="34.6872927435"><ele>172.69</ele><time>2026-08-22T15:34:59Z</time></trkpt><trkpt lat="59.3561160564" lon="34.6872028895"><ele>172.21</ele><time>2026-08-22T15:35:16Z</time></trkpt><trkpt lat="59.3560937606" lon="34.6871287934"><ele>172.21</ele><time>2026-08-22T15:35:22Z</time></trkpt><trkpt lat="59.3560391944" lon="34.6870629117"><ele>172.21</ele><time>2026-08-22T15:35:43Z</time></trkpt><trkpt lat="59.3560406193" lon="34.6870273724"><ele>172.21</ele><time>2026-08-22T15:35:49Z</time></trkpt><trkpt lat="59.3559280504" lon="34.6868562140"><ele>172.21</ele><time>2026-08-22T15:36:08Z</time></trkpt><trkpt lat="59.3559066765" lon="34.6867820341"><ele>172.21</ele><time>2026-08-22T15:36:14Z</time></trkpt><trkpt lat="59.3557997234" lon="34.6865755878"><ele>171.73</ele><time>2026-08-22T15:36:34Z</time></trkpt><trkpt lat="59.3557329196" lon="34.6864137333"><ele>171.25</ele><time>2026-08-22T15:36:48Z</time></trkpt><trkpt lat="59.3556416407" lon="34.6862875018"><ele>171.25</ele><time>2026-08-22T15:37:04Z</time></trkpt><trkpt lat="59.3555461708" lon="34.6862274036"><ele>171.25</ele><time>2026-08-22T15:37:20Z</time></trkpt><trkpt lat="59.3554829713" lon="34.6861359570"><ele>171.25</ele><time>2026-08-22T15:37:44Z</time></trkpt><trkpt lat="59.3554920238" lon="34.6860711649"><ele>171.25</ele><time>2026-08-22T15:37:48Z</time></trkpt><trkpt lat="59.3554250523" lon="34.6859782934"><ele>171.25</ele><time>2026-08-22T15:38:00Z</time></trkpt><trkpt lat="59.3554277346" lon="34.6860520542"><ele>171.25</ele><time>2026-08-22T15:38:36Z</time></trkpt><trkpt lat="59.3554571550" lon="34.6860199515"><ele>171.25</ele><time>2026-08-22T15:39:24Z</time></trkpt><trkpt lat="59.3554066960" lon="34.6860236395"><ele>171.25</ele><time>2026-08-22T15:39:47Z</time></trkpt><trkpt lat="59.3553210329" lon="34.6860581730"><ele>171.25</ele><time>2026-08-22T15:40:06Z</time></trkpt><trkpt lat="59.3553068675" lon="34.6861514635"><ele>171.25</ele><time>2026-08-22T15:40:11Z</time></trkpt><trkpt lat="59.3552746810" lon="34.6861051116"><ele>171.25</ele><time>2026-08-22T15:40:26Z</time></trkpt><trkpt lat="59.3551978189" lon="34.6860815585"><ele>171.25</ele><time>2026-08-22T15:40:41Z</time></trkpt><trkpt lat="59.3550782930" lon="34.6860361286"><ele>173.17</ele><time>2026-08-22T15:40:59Z</time></trkpt><trkpt lat="59.3549781293" lon="34.6860577539"><ele>173.66</ele><time>2026-08-22T15:41:13Z</time></trkpt><trkpt lat="59.3549083080" lon="34.6860649623"><ele>173.66</ele><time>2026-08-22T15:41:28Z</time></trkpt><trkpt lat="59.3549617846" lon="34.6860666387"><ele>174.14</ele><time>2026-08-22T15:41:57Z</time></trkpt><trkpt lat="59.3549714237" lon="34.6860901080"><ele>174.14</ele><time>2026-08-22T15:42:25Z</time></trkpt><trkpt lat="59.3549773749" lon="34.6860932931"><ele>174.14</ele><time>2026-08-22T15:42:27Z</time></trkpt><trkpt lat="59.3549911212" lon="34.6861264016"><ele>174.14</ele><time>2026-08-22T15:42:59Z</time></trkpt><trkpt lat="59.3549864274" lon="34.6863720752"><ele>174.14</ele><time>2026-08-22T15:43:16Z</time></trkpt><trkpt lat="59.3549865112" lon="34.6865267213"><ele>174.14</ele><time>2026-08-22T15:43:31Z</time></trkpt><trkpt lat="59.3550347071" lon="34.6867198404"><ele>174.14</ele><time>2026-08-22T15:43:46Z</time></trkpt><trkpt lat="59.3550081365" lon="34.6867732331"><ele>173.17</ele><time>2026-08-22T15:43:53Z</time></trkpt><trkpt lat="59.3550680671" lon="34.6869665198"><ele>172.69</ele><time>2026-08-22T15:44:11Z</time></trkpt><trkpt lat="59.3550884351" lon="34.6871290449"><ele>172.21</ele><time>2026-08-22T15:44:24Z</time></trkpt><trkpt lat="59.3551371340" lon="34.6872800868"><ele>171.25</ele><time>2026-08-22T15:44:42Z</time></trkpt><trkpt lat="59.3551271595" lon="34.6874669194"><ele>170.77</ele><time>2026-08-22T15:44:58Z</time></trkpt><trkpt lat="59.3551482819" lon="34.6875276044"><ele>170.77</ele><time>2026-08-22T15:45:12Z</time></trkpt><trkpt lat="59.3551940471" lon="34.6875059791"><ele>170.77</ele><time>2026-08-22T15:45:41Z</time></trkpt><trkpt lat="59.3551781215" lon="34.6874608006"><ele>170.29</ele><time>2026-08-22T15:46:30Z</time></trkpt><trkpt lat="59.3552102242" lon="34.6874209866"><ele>169.81</ele><time>2026-08-22T15:47:15Z</time></trkpt><trkpt lat="59.3552113976" lon="34.6874899697"><ele>170.29</ele><time>2026-08-22T15:47:47Z</time></trkpt><trkpt lat="59.3552620243" lon="34.6875386685"><ele>170.29</ele><time>2026-08-22T15:48:11Z</time></trkpt><trkpt lat="59.3553070351" lon="34.6875872836"><ele>169.81</ele><time>2026-08-22T15:48:29Z</time></trkpt><trkpt lat="59.3553409819" lon="34.6876226552"><ele>169.81</ele><time>2026-08-22T15:48:36Z</time></trkpt><trkpt lat="59.3554511201" lon="34.6876448672"><ele>169.81</ele><time>2026-08-22T15:48:56Z</time></trkpt><trkpt lat="59.3554936163" lon="34.6877491381"><ele>169.81</ele><time>2026-08-22T15:49:13Z</time></trkpt><trkpt lat="59.3555315025" lon="34.6877496410"><ele>169.81</ele><time>2026-08-22T15:49:32Z</time></trkpt><trkpt lat="59.3556853943" lon="34.6876824182"><ele>169.81</ele><time>2026-08-22T15:49:49Z</time></trkpt><trkpt lat="59.3558083568" lon="34.6876663249"><ele>169.81</ele><time>2026-08-22T15:50:12Z</time></trkpt><trkpt lat="59.3558940198" lon="34.6876928117"><ele>169.81</ele><time>2026-08-22T15:50:38Z</time></trkpt><trkpt lat="59.3558081053" lon="34.6879112441"><ele>169.81</ele><time>2026-08-22T15:50:54Z</time></trkpt><trkpt lat="59.3559079338" lon="34.6878848411"><ele>169.81</ele><time>2026-08-22T15:51:14Z</time></trkpt><trkpt lat="59.3560137134" lon="34.6880332846"><ele>170.77</ele><time>2026-08-22T15:51:33Z</time></trkpt><trkpt lat="59.3560002185" lon="34.6880925447"><ele>171.25</ele><time>2026-08-22T15:51:40Z</time></trkpt><trkpt lat="59.3560037389" lon="34.6882856637"><ele>171.25</ele><time>2026-08-22T15:52:01Z</time></trkpt><trkpt lat="59.3560841214" lon="34.6884037647"><ele>171.25</ele><time>2026-08-22T15:52:16Z</time></trkpt><trkpt lat="59.3562262785" lon="34.6884056926"><ele>171.73</ele><time>2026-08-22T15:52:35Z</time></trkpt><trkpt lat="59.3563316390" lon="34.6885604225"><ele>171.25</ele><time>2026-08-22T15:52:54Z</time></trkpt><trkpt lat="59.3564212415" lon="34.6885017492"><ele>171.25</ele><time>2026-08-22T15:53:11Z</time></trkpt><trkpt lat="59.3564558588" lon="34.6884512063"><ele>171.25</ele><time>2026-08-22T15:53:15Z</time></trkpt><trkpt lat="59.3564934935" lon="34.6884265635"><ele>171.25</ele><time>2026-08-22T15:53:19Z</time></trkpt><trkpt lat="59.3565619737" lon="34.6883955505"><ele>171.25</ele><time>2026-08-22T15:53:27Z</time></trkpt><trkpt lat="59.3566324655" lon="34.6883664653"><ele>171.25</ele><time>2026-08-22T15:53:48Z</time></trkpt><trkpt lat="59.3566060625" lon="34.6882119868"><ele>170.29</ele><time>2026-08-22T15:54:11Z</time></trkpt><trkpt lat="59.3565089162" lon="34.6883259807"><ele>170.29</ele><time>2026-08-22T15:54:54Z</time></trkpt><trkpt lat="59.3565791566" lon="34.6883266512"><ele>170.29</ele><time>2026-08-22T15:55:29Z</time></trkpt><trkpt lat="59.3565678410" lon="34.6883875038"><ele>170.29</ele><time>2026-08-22T15:55:54Z</time></trkpt><trkpt lat="59.3565771449" lon="34.6883986518"><ele>170.29</ele><time>2026-08-22T15:56:30Z</time></trkpt><trkpt lat="59.3565458804" lon="34.6885106340"><ele>170.29</ele><time>2026-08-22T15:56:59Z</time></trkpt><trkpt lat="59.3564898893" lon="34.6884885896"><ele>170.77</ele><time>2026-08-22T15:57:29Z</time></trkpt><trkpt lat="59.3566014525" lon="34.6885057725"><ele>170.77</ele><time>2026-08-22T15:57:52Z</time></trkpt><trkpt lat="59.3565996084" lon="34.6885250509"><ele>171.73</ele><time>2026-08-22T15:58:02Z</time></trkpt><trkpt lat="59.3566098344" lon="34.6885612607"><ele>171.73</ele><time>2026-08-22T15:58:25Z</time></trkpt><trkpt lat="59.3567046337" lon="34.6883683093"><ele>172.21</ele><time>2026-08-22T15:59:03Z</time></trkpt><trkpt lat="59.3567107525" lon="34.6884445008"><ele>172.21</ele><time>2026-08-22T15:59:27Z</time></trkpt><trkpt lat="59.3566673342" lon="34.6883787028"><ele>172.21</ele><time>2026-08-22T16:00:08Z</time></trkpt><trkpt lat="59.3567419332" lon="34.6884777769"><ele>172.69</ele><time>2026-08-22T16:00:39Z</time></trkpt><trkpt lat="59.3566428591" lon="34.6884769388"><ele>172.69</ele><time>2026-08-22T16:01:00Z</time></trkpt><trkpt lat="59.3565810844" lon="34.6884140745"><ele>172.69</ele><time>2026-08-22T16:01:22Z</time></trkpt><trkpt lat="59.3565804139" lon="34.6885175910"><ele>172.69</ele><time>2026-08-22T16:01:51Z</time></trkpt><trkpt lat="59.3566044699" lon="34.6884788666"><ele>173.17</ele><time>2026-08-22T16:02:33Z</time></trkpt><trkpt lat="59.3566410150" lon="34.6883620229"><ele>173.66</ele><time>2026-08-22T16:02:53Z</time></trkpt><trkpt lat="59.3567292765" lon="34.6883315127"><ele>174.14</ele><time>2026-08-22T16:03:40Z</time></trkpt><trkpt lat="59.3567333836" lon="34.6882809699"><ele>174.62</ele><time>2026-08-22T16:04:08Z</time></trkpt><trkpt lat="59.3567431066" lon="34.6882795449"><ele>174.62</ele><time>2026-08-22T16:04:37Z</time></trkpt><trkpt lat="59.3567219004" lon="34.6884763520"><ele>174.62</ele><time>2026-08-22T16:05:15Z</time></trkpt><trkpt lat="59.3566355668" lon="34.6884952951"><ele>175.10</ele><time>2026-08-22T16:05:38Z</time></trkpt><trkpt lat="59.3565240875" lon="34.6885410603"><ele>175.10</ele><time>2026-08-22T16:05:53Z</time></trkpt><trkpt lat="59.3565429468" lon="34.6885271464"><ele>175.10</ele><time>2026-08-22T16:06:16Z</time></trkpt><trkpt lat="59.3565167952" lon="34.6888309903"><ele>175.10</ele><time>2026-08-22T16:06:51Z</time></trkpt><trkpt lat="59.3564749695" lon="34.6888775937"><ele>175.10</ele><time>2026-08-22T16:07:10Z</time></trkpt><trkpt lat="59.3564368319" lon="34.6890314016"><ele>176.06</ele><time>2026-08-22T16:07:26Z</time></trkpt><trkpt lat="59.3563970178" lon="34.6891249437"><ele>176.06</ele><time>2026-08-22T16:07:40Z</time></trkpt><trkpt lat="59.3563816790" lon="34.6892412845"><ele>176.06</ele><time>2026-08-22T16:07:57Z</time></trkpt><trkpt lat="59.3563204072" lon="34.6892702859"><ele>176.06</ele><time>2026-08-22T16:08:14Z</time></trkpt><trkpt lat="59.3561677728" lon="34.6892653406"><ele>176.06</ele><time>2026-08-22T16:08:38Z</time></trkpt><trkpt lat="59.3561227620" lon="34.6891816892"><ele>176.06</ele><time>2026-08-22T16:09:10Z</time></trkpt><trkpt lat="59.3561534397" lon="34.6891953517"><ele>176.54</ele><time>2026-08-22T16:09:51Z</time></trkpt><trkpt lat="59.3561602291" lon="34.6892141271"><ele>176.54</ele><time>2026-08-22T16:10:29Z</time></trkpt><trkpt lat="59.3561440520" lon="34.6892306395"><ele>176.54</ele><time>2026-08-22T16:11:22Z</time></trkpt><trkpt lat="59.3560961913" lon="34.6892440505"><ele>176.54</ele><time>2026-08-22T16:11:49Z</time></trkpt><trkpt lat="59.3560298067" lon="34.6891924180"><ele>176.54</ele><time>2026-08-22T16:12:03Z</time></trkpt><trkpt lat="59.3560279626" lon="34.6891944297"><ele>176.54</ele><time>2026-08-22T16:12:04Z</time></trkpt><trkpt lat="59.3559179921" lon="34.6891824435"><ele>176.54</ele><time>2026-08-22T16:12:20Z</time></trkpt><trkpt lat="59.3558039982" lon="34.6891388576"><ele>176.54</ele><time>2026-08-22T16:12:34Z</time></trkpt><trkpt lat="59.3556852266" lon="34.6892031468"><ele>176.54</ele><time>2026-08-22T16:12:50Z</time></trkpt><trkpt lat="59.3556052633" lon="34.6891332418"><ele>176.54</ele><time>2026-08-22T16:13:03Z</time></trkpt><trkpt lat="59.3555985577" lon="34.6891318168"><ele>176.54</ele><time>2026-08-22T16:13:04Z</time></trkpt><trkpt lat="59.3555170856" lon="34.6891256981"><ele>176.54</ele><time>2026-08-22T16:13:17Z</time></trkpt><trkpt lat="59.3554523773" lon="34.6890277974"><ele>176.54</ele><time>2026-08-22T16:13:32Z</time></trkpt><trkpt lat="59.3553533871" lon="34.6889121272"><ele>176.54</ele><time>2026-08-22T16:13:49Z</time></trkpt><trkpt lat="59.3552664667" lon="34.6888527833"><ele>176.54</ele><time>2026-08-22T16:14:04Z</time></trkpt><trkpt lat="59.3552125711" lon="34.6888961177"><ele>176.54</ele><time>2026-08-22T16:14:23Z</time></trkpt><trkpt lat="59.3552313466" lon="34.6889188327"><ele>176.54</ele><time>2026-08-22T16:15:21Z</time></trkpt><trkpt lat="59.3552206177" lon="34.6888538729"><ele>175.58</ele><time>2026-08-22T16:16:07Z</time></trkpt><trkpt lat="59.3552011717" lon="34.6889024880"><ele>175.10</ele><time>2026-08-22T16:16:42Z</time></trkpt><trkpt lat="59.3552312627" lon="34.6889140550"><ele>175.10</ele><time>2026-08-22T16:17:24Z</time></trkpt><trkpt lat="59.3552773632" lon="34.6889785118"><ele>175.10</ele><time>2026-08-22T16:18:06Z</time></trkpt><trkpt lat="59.3553603441" lon="34.6891163941"><ele>175.10</ele><time>2026-08-22T16:18:26Z</time></trkpt><trkpt lat="59.3553206977" lon="34.6893154643"><ele>175.10</ele><time>2026-08-22T16:18:42Z</time></trkpt><trkpt lat="59.3552468531" lon="34.6894629858"><ele>175.10</ele><time>2026-08-22T16:19:00Z</time></trkpt><trkpt lat="59.3551506288" lon="34.6896035504"><ele>175.10</ele><time>2026-08-22T16:19:14Z</time></trkpt><trkpt lat="59.3550787959" lon="34.6897120122"><ele>175.10</ele><time>2026-08-22T16:19:27Z</time></trkpt><trkpt lat="59.3551143352" lon="34.6897488087"><ele>175.10</ele><time>2026-08-22T16:20:17Z</time></trkpt><trkpt lat="59.3551403191" lon="34.6898564324"><ele>175.10</ele><time>2026-08-22T16:20:25Z</time></trkpt><trkpt lat="59.3551207893" lon="34.6899473760"><ele>175.10</ele><time>2026-08-22T16:20:33Z</time></trkpt><trkpt lat="59.3551086355" lon="34.6900705062"><ele>175.10</ele><time>2026-08-22T16:20:50Z</time></trkpt><trkpt lat="59.3551285844" lon="34.6901322808"><ele>175.10</ele><time>2026-08-22T16:21:00Z</time></trkpt><trkpt lat="59.3551590946" lon="34.6901777107"><ele>175.10</ele><time>2026-08-22T16:21:19Z</time></trkpt><trkpt lat="59.3551769480" lon="34.6903035231"><ele>174.62</ele><time>2026-08-22T16:21:38Z</time></trkpt><trkpt lat="59.3551945500" lon="34.6903487854"><ele>174.62</ele><time>2026-08-22T16:22:00Z</time></trkpt><trkpt lat="59.3552314304" lon="34.6904725023"><ele>174.62</ele><time>2026-08-22T16:22:13Z</time></trkpt><trkpt lat="59.3552706577" lon="34.6905476041"><ele>174.62</ele><time>2026-08-22T16:22:21Z</time></trkpt><trkpt lat="59.3553270679" lon="34.6906841453"><ele>174.62</ele><time>2026-08-22T16:22:36Z</time></trkpt><trkpt lat="59.3553678878" lon="34.6907980554"><ele>174.62</ele><time>2026-08-22T16:22:54Z</time></trkpt><trkpt lat="59.3553865794" lon="34.6908168308"><ele>174.62</ele><time>2026-08-22T16:22:57Z</time></trkpt><trkpt lat="59.3554921914" lon="34.6909747459"><ele>174.62</ele><time>2026-08-22T16:23:15Z</time></trkpt><trkpt lat="59.3554887548" lon="34.6909789369"><ele>174.62</ele><time>2026-08-22T16:23:16Z</time></trkpt><trkpt lat="59.3554693088" lon="34.6910797711"><ele>174.62</ele><time>2026-08-22T16:23:32Z</time></trkpt><trkpt lat="59.3554825522" lon="34.6910730656"><ele>174.62</ele><time>2026-08-22T16:24:08Z</time></trkpt><trkpt lat="59.3553733360" lon="34.6911432222"><ele>174.62</ele><time>2026-08-22T16:24:19Z</time></trkpt><trkpt lat="59.3553625233" lon="34.6911537834"><ele>174.62</ele><time>2026-08-22T16:24:20Z</time></trkpt><trkpt lat="59.3551984895" lon="34.6913354192"><ele>174.62</ele><time>2026-08-22T16:24:37Z</time></trkpt><trkpt lat="59.3550221343" lon="34.6913598944"><ele>174.14</ele><time>2026-08-22T16:24:52Z</time></trkpt><trkpt lat="59.3548972439" lon="34.6912514325"><ele>174.14</ele><time>2026-08-22T16:25:07Z</time></trkpt><trkpt lat="59.3547653127" lon="34.6912124567"><ele>174.14</ele><time>2026-08-22T16:25:25Z</time></trkpt><trkpt lat="59.3545853533" lon="34.6914267819"><ele>174.14</ele><time>2026-08-22T16:25:45Z</time></trkpt><trkpt lat="59.3544718623" lon="34.6916581225"><ele>173.17</ele><time>2026-08-22T16:26:04Z</time></trkpt><trkpt lat="59.3543197308" lon="34.6919558477"><ele>172.69</ele><time>2026-08-22T16:26:27Z</time></trkpt><trkpt lat="59.3541947566" lon="34.6923559159"><ele>172.69</ele><time>2026-08-22T16:26:50Z</time></trkpt><trkpt lat="59.3541358318" lon="34.6927365381"><ele>172.69</ele><time>2026-08-22T16:27:09Z</time></trkpt><trkpt lat="59.3542042281" lon="34.6930731554"><ele>172.69</ele><time>2026-08-22T16:27:29Z</time></trkpt><trkpt lat="59.3541959301" lon="34.6934898198"><ele>172.69</ele><time>2026-08-22T16:27:50Z</time></trkpt><trkpt lat="59.3540263642" lon="34.6939980984"><ele>172.21</ele><time>2026-08-22T16:28:17Z</time></trkpt><trkpt lat="59.3540126178" lon="34.6943969931"><ele>172.21</ele><time>2026-08-22T16:28:36Z</time></trkpt><trkpt lat="59.3539867178" lon="34.6948326007"><ele>171.25</ele><time>2026-08-22T16:28:58Z</time></trkpt><trkpt lat="59.3539914116" lon="34.6952247899"><ele>170.77</ele><time>2026-08-22T16:29:18Z</time></trkpt><trkpt lat="59.3539717142" lon="34.6955068409"><ele>170.29</ele><time>2026-08-22T16:29:34Z</time></trkpt><trkpt lat="59.3539789226" lon="34.6957449708"><ele>170.29</ele><time>2026-08-22T16:29:55Z</time></trkpt><trkpt lat="59.3540263642" lon="34.6960391756"><ele>170.29</ele><time>2026-08-22T16:30:14Z</time></trkpt><trkpt lat="59.3541083392" lon="34.6967085544"><ele>170.29</ele><time>2026-08-22T16:30:45Z</time></trkpt><trkpt lat="59.3541437108" lon="34.6972244605"><ele>169.81</ele><time>2026-08-22T16:31:10Z</time></trkpt><trkpt lat="59.3540480733" lon="34.6979095135"><ele>169.33</ele><time>2026-08-22T16:31:43Z</time></trkpt><trkpt lat="59.3539507594" lon="34.6985913813"><ele>168.85</ele><time>2026-08-22T16:32:18Z</time></trkpt><trkpt lat="59.3537325785" lon="34.6990290005"><ele>168.37</ele><time>2026-08-22T16:32:48Z</time></trkpt><trkpt lat="59.3535921816" lon="34.6998272091"><ele>167.89</ele><time>2026-08-22T16:33:27Z</time></trkpt><trkpt lat="59.3534993939" lon="34.7006788105"><ele>167.89</ele><time>2026-08-22T16:34:08Z</time></trkpt><trkpt lat="59.3534552213" lon="34.7013134882"><ele>167.89</ele><time>2026-08-22T16:34:37Z</time></trkpt><trkpt lat="59.3533825502" lon="34.7020429652"><ele>168.85</ele><time>2026-08-22T16:35:09Z</time></trkpt><trkpt lat="59.3533565663" lon="34.7026022058"><ele>168.37</ele><time>2026-08-22T16:35:35Z</time></trkpt><trkpt lat="59.3533348572" lon="34.7027414292"><ele>168.37</ele><time>2026-08-22T16:35:53Z</time></trkpt><trkpt lat="59.3533489387" lon="34.7030268330"><ele>168.37</ele><time>2026-08-22T16:36:19Z</time></trkpt><trkpt lat="59.3533249665" lon="34.7035890911"><ele>168.37</ele><time>2026-08-22T16:36:46Z</time></trkpt><trkpt lat="59.3532983121" lon="34.7040785104"><ele>168.37</ele><time>2026-08-22T16:37:09Z</time></trkpt><trkpt lat="59.3532234617" lon="34.7045089211"><ele>168.37</ele><time>2026-08-22T16:37:31Z</time></trkpt><trkpt lat="59.3530664686" lon="34.7047714423"><ele>167.89</ele><time>2026-08-22T16:37:49Z</time></trkpt><trkpt lat="59.3529911153" lon="34.7049000207"><ele>166.93</ele><time>2026-08-22T16:37:59Z</time></trkpt><trkpt lat="59.3529060390" lon="34.7050363943"><ele>166.45</ele><time>2026-08-22T16:38:18Z</time></trkpt><trkpt lat="59.3527262472" lon="34.7053785436"><ele>166.45</ele><time>2026-08-22T16:38:40Z</time></trkpt><trkpt lat="59.3526737764" lon="34.7055206168"><ele>166.45</ele><time>2026-08-22T16:38:50Z</time></trkpt><trkpt lat="59.3525557593" lon="34.7059418075"><ele>165.48</ele><time>2026-08-22T16:39:14Z</time></trkpt><trkpt lat="59.3524116743" lon="34.7064001299"><ele>165.00</ele><time>2026-08-22T16:39:38Z</time></trkpt><trkpt lat="59.3522735406" lon="34.7066421993"><ele>165.96</ele><time>2026-08-22T16:39:59Z</time></trkpt><trkpt lat="59.3520887196" lon="34.7063419595"><ele>165.96</ele><time>2026-08-22T16:40:20Z</time></trkpt><trkpt lat="59.3519397732" lon="34.7059026640"><ele>165.96</ele><time>2026-08-22T16:40:44Z</time></trkpt><trkpt lat="59.3519209139" lon="34.7053974867"><ele>166.45</ele><time>2026-08-22T16:41:07Z</time></trkpt><trkpt lat="59.3519272842" lon="34.7047427762"><ele>166.45</ele><time>2026-08-22T16:41:36Z</time></trkpt><trkpt lat="59.3519458920" lon="34.7042562068"><ele>166.93</ele><time>2026-08-22T16:41:58Z</time></trkpt><trkpt lat="59.3519616500" lon="34.7037715651"><ele>166.93</ele><time>2026-08-22T16:42:23Z</time></trkpt><trkpt lat="59.3519829400" lon="34.7036304977"><ele>166.93</ele><time>2026-08-22T16:42:37Z</time></trkpt><trkpt lat="59.3520203233" lon="34.7031457722"><ele>166.93</ele><time>2026-08-22T16:43:00Z</time></trkpt><trkpt lat="59.3519533519" lon="34.7026636451"><ele>166.93</ele><time>2026-08-22T16:43:24Z</time></trkpt><trkpt lat="59.3517481629" lon="34.7024877090"><ele>166.93</ele><time>2026-08-22T16:43:45Z</time></trkpt><trkpt lat="59.3515282217" lon="34.7024258506"><ele>167.89</ele><time>2026-08-22T16:44:07Z</time></trkpt><trkpt lat="59.3513304088" lon="34.7023622319"><ele>168.37</ele><time>2026-08-22T16:44:26Z</time></trkpt><trkpt lat="59.3510995712" lon="34.7021898162"><ele>168.85</ele><time>2026-08-22T16:44:49Z</time></trkpt><trkpt lat="59.3510155007" lon="34.7018487565"><ele>168.85</ele><time>2026-08-22T16:45:09Z</time></trkpt><trkpt lat="59.3509907741" lon="34.7013153322"><ele>169.33</ele><time>2026-08-22T16:45:33Z</time></trkpt><trkpt lat="59.3509056140" lon="34.7009755298"><ele>168.85</ele><time>2026-08-22T16:45:54Z</time></trkpt><trkpt lat="59.3509046081" lon="34.7009966522"><ele>169.33</ele><time>2026-08-22T16:46:24Z</time></trkpt><trkpt lat="59.3509151693" lon="34.7010031063"><ele>169.33</ele><time>2026-08-22T16:46:37Z</time></trkpt><trkpt lat="59.3509046081" lon="34.7010206245"><ele>169.33</ele><time>2026-08-22T16:46:51Z</time></trkpt><trkpt lat="59.3508791272" lon="34.7010205407"><ele>169.33</ele><time>2026-08-22T16:47:03Z</time></trkpt><trkpt lat="59.3509068713" lon="34.7010218818"><ele>169.33</ele><time>2026-08-22T16:47:31Z</time></trkpt><trkpt lat="59.3509050272" lon="34.7010115720"><ele>169.33</ele><time>2026-08-22T16:47:49Z</time></trkpt><trkpt lat="59.3508889340" lon="34.7009780444"><ele>169.33</ele><time>2026-08-22T16:48:05Z</time></trkpt><trkpt lat="59.3509088829" lon="34.7009556647"><ele>169.33</ele><time>2026-08-22T16:48:21Z</time></trkpt></trkseg></trk></gpx>